Observation data for Estelline on 04/25/2019      Previous  Date  Next       Current Mesonet Observations  Soil Data  Daily Summary Page  Observations in Plain Language
KES1 250500Z 16008KT 13/11 A2985 RMK A01 T01340114  RH  088%=      5-min Rain = 0
KES1 250501Z 17008KT 13/11 A2985 RMK A01 T01340114  RH  088%=      5-min Rain = 0
KES1 250502Z 17008KT 13/11 A2985 RMK A01 T01340114  RH  088%=      5-min Rain = 0
KES1 250503Z 17008KT 13/11 A2985 RMK A01 T01340114  RH  088%=      5-min Rain = 0
KES1 250504Z 17008KT 13/11 A2985 RMK A01 T01340114  RH  088%=      5-min Rain = 0
KES1 250505Z 17007KT 13/11 A2985 RMK A01 T01340114  RH  088%=      5-min Rain = 0
KES1 250506Z 17007KT 13/11 A2985 RMK A01 T01340114  RH  087%=      5-min Rain = 0
KES1 250507Z 17008KT 13/11 A2985 RMK A01 T01340114  RH  088%=      5-min Rain = 0
KES1 250508Z 17007KT 13/11 A2985 RMK A01 T01340114  RH  088%=      5-min Rain = 0
KES1 250509Z 17007KT 13/11 A2985 RMK A01 T01340114  RH  088%=      5-min Rain = 0
KES1 250510Z 17007KT 13/11 A2985 RMK A01 T01340114  RH  088%=      5-min Rain = 0
KES1 250511Z 17007KT 13/12 A2985 RMK A01 T01340115  RH  088%=      5-min Rain = 0
KES1 250512Z 17007KT 13/11 A2985 RMK A01 T01340114  RH  088%=      5-min Rain = 0
KES1 250513Z 17007KT 13/11 A2985 RMK A01 T01340114  RH  088%=      5-min Rain = 0
KES1 250514Z 17007KT 13/11 A2985 RMK A01 T01340114  RH  088%=      5-min Rain = 0
KES1 250515Z 17007KT 13/11 A2985 RMK A01 T01340114  RH  088%=      5-min Rain = 0
KES1 250516Z 17007KT 13/11 A2985 RMK A01 T01340114  RH  088%=      5-min Rain = 0
KES1 250517Z 17008KT 13/12 A2985 RMK A01 T01340115  RH  088%=      5-min Rain = 0
KES1 250518Z 17007KT 13/11 A2985 RMK A01 T01340114  RH  088%=      5-min Rain = 0
KES1 250519Z 17007KT 13/11 A2985 RMK A01 T01330114  RH  088%=      5-min Rain = 0
KES1 250520Z 17007KT 13/11 A2985 RMK A01 T01330114  RH  088%=      5-min Rain = 0
KES1 250521Z 17007KT 13/11 A2985 RMK A01 T01330114  RH  088%=      5-min Rain = 0
KES1 250522Z 17008KT 13/11 A2985 RMK A01 T01330114  RH  088%=      5-min Rain = 0
KES1 250523Z 17007KT 13/11 A2985 RMK A01 T01330114  RH  088%=      5-min Rain = 0
KES1 250524Z 17007KT 13/11 A2985 RMK A01 T01330114  RH  088%=      5-min Rain = 0
KES1 250525Z 16007KT 13/11 A2985 RMK A01 T01330114  RH  088%=      5-min Rain = 0
KES1 250526Z 16006KT 13/11 A2985 RMK A01 T01330114  RH  088%=      5-min Rain = 0
KES1 250527Z 16006KT 13/11 A2985 RMK A01 T01330114  RH  088%=      5-min Rain = 0
KES1 250528Z 16006KT 13/11 A2985 RMK A01 T01320114  RH  089%=      5-min Rain = 0
KES1 250529Z 16006KT 13/11 A2985 RMK A01 T01320114  RH  089%=      5-min Rain = 0
KES1 250530Z 16007KT 13/11 A2985 RMK A01 T01310113  RH  089%=      5-min Rain = 0
KES1 250531Z 16007KT 13/11 A2985 RMK A01 T01300113  RH  089%=      5-min Rain = 0
KES1 250532Z 16007KT 13/11 A2985 RMK A01 T01300113  RH  090%=      5-min Rain = 0
KES1 250533Z 16007KT 13/11 A2985 RMK A01 T01300114  RH  090%=      5-min Rain = 0
KES1 250534Z 16007KT 13/11 A2985 RMK A01 T01300114  RH  090%=      5-min Rain = 0
KES1 250535Z 16007KT 13/11 A2985 RMK A01 T01300113  RH  090%=      5-min Rain = 0
KES1 250536Z 16007KT 13/11 A2985 RMK A01 T01300114  RH  090%=      5-min Rain = 0
KES1 250537Z 16007KT 13/11 A2985 RMK A01 T01290113  RH  090%=      5-min Rain = 0
KES1 250538Z 16008KT 13/11 A2985 RMK A01 T01290114  RH  090%=      5-min Rain = 0
KES1 250539Z 16008KT 13/11 A2985 RMK A01 T01290114  RH  091%=      5-min Rain = 0
KES1 250540Z 16008KT 13/11 A2985 RMK A01 T01290114  RH  091%=      5-min Rain = 0
KES1 250541Z 16007KT 13/11 A2985 RMK A01 T01290114  RH  091%=      5-min Rain = 0
KES1 250542Z 16008KT 13/11 A2985 RMK A01 T01290114  RH  090%=      5-min Rain = 0
KES1 250543Z 16007KT 13/11 A2985 RMK A01 T01290114  RH  090%=      5-min Rain = 0
KES1 250544Z 16007KT 13/11 A2985 RMK A01 T01290114  RH  090%=      5-min Rain = 0
KES1 250545Z 16007KT 13/11 A2985 RMK A01 T01290114  RH  091%=      5-min Rain = 0
KES1 250546Z 17008KT 13/12 A2985 RMK A01 T01290115  RH  091%=      5-min Rain = 0
KES1 250547Z 17008KT 13/11 A2985 RMK A01 T01300114  RH  090%=      5-min Rain = 0
KES1 250548Z 17008KT 13/12 A2985 RMK A01 T01300115  RH  090%=      5-min Rain = 0
KES1 250549Z 17008KT 13/12 A2985 RMK A01 T01300115  RH  090%=      5-min Rain = 0
KES1 250550Z 16007KT 13/12 A2984 RMK A01 T01310115  RH  090%=      5-min Rain = 0
KES1 250551Z 17007KT 13/12 A2984 RMK A01 T01310115  RH  090%=      5-min Rain = 0
KES1 250552Z 17007KT 13/12 A2984 RMK A01 T01310115  RH  090%=      5-min Rain = 0
KES1 250553Z 17007KT 13/11 A2984 RMK A01 T01310114  RH  090%=      5-min Rain = 0
KES1 250554Z 17007KT 13/12 A2984 RMK A01 T01310115  RH  090%=      5-min Rain = 0
KES1 250555Z 17007KT 13/12 A2984 RMK A01 T01310115  RH  090%=      5-min Rain = 0
KES1 250556Z 17007KT 13/12 A2984 RMK A01 T01300115  RH  090%=      5-min Rain = 0
KES1 250557Z 17007KT 13/12 A2984 RMK A01 T01310115  RH  090%=      5-min Rain = 0
KES1 250558Z 17007KT 13/12 A2984 RMK A01 T01310115  RH  090%=      5-min Rain = 0
KES1 250559Z 17007KT 13/11 A2984 RMK A01 T01310114  RH  090%=      5-min Rain = 0
KES1 250600Z 17007KT 13/11 A2984 RMK A01 T01310114  RH  090%=      5-min Rain = 0
KES1 250601Z 17007KT 13/11 A2984 RMK A01 T01310114  RH  090%=      5-min Rain = 0
KES1 250602Z 17006KT 13/12 A2984 RMK A01 T01310115  RH  090%=      5-min Rain = 0
KES1 250603Z 17007KT 13/12 A2984 RMK A01 T01310115  RH  090%=      5-min Rain = 0
KES1 250604Z 17007KT 13/12 A2984 RMK A01 T01310115  RH  090%=      5-min Rain = 0
KES1 250605Z 17007KT 13/12 A2984 RMK A01 T01310115  RH  090%=      5-min Rain = 0
KES1 250606Z 18007KT 13/12 A2984 RMK A01 T01310115  RH  090%=      5-min Rain = 0
KES1 250607Z 17007KT 13/12 A2984 RMK A01 T01310115  RH  090%=      5-min Rain = 0
KES1 250608Z 17007KT 13/11 A2984 RMK A01 T01310114  RH  090%=      5-min Rain = 0
KES1 250609Z 17007KT 13/11 A2984 RMK A01 T01310114  RH  090%=      5-min Rain = 0
KES1 250610Z 17006KT 13/11 A2984 RMK A01 T01300114  RH  090%=      5-min Rain = 0
KES1 250611Z 17006KT 13/11 A2984 RMK A01 T01300114  RH  090%=      5-min Rain = 0
KES1 250612Z 17006KT 13/11 A2984 RMK A01 T01300114  RH  090%=      5-min Rain = 0
KES1 250613Z 17006KT 13/11 A2984 RMK A01 T01300114  RH  090%=      5-min Rain = 0
KES1 250614Z 17006KT 13/11 A2984 RMK A01 T01290114  RH  090%=      5-min Rain = 0
KES1 250615Z 17006KT 13/11 A2984 RMK A01 T01290114  RH  090%=      5-min Rain = 0
KES1 250616Z 17005KT 13/11 A2984 RMK A01 T01290114  RH  091%=      5-min Rain = 0
KES1 250617Z 18005KT 13/11 A2984 RMK A01 T01290114  RH  091%=      5-min Rain = 0
KES1 250618Z 17006KT 13/11 A2984 RMK A01 T01290114  RH  091%=      5-min Rain = 0
KES1 250619Z 17006KT 13/11 A2984 RMK A01 T01290114  RH  091%=      5-min Rain = 0
KES1 250620Z 17006KT 13/11 A2984 RMK A01 T01290114  RH  091%=      5-min Rain = 0
KES1 250621Z 18006KT 13/11 A2984 RMK A01 T01290114  RH  091%=      5-min Rain = 0
KES1 250622Z 17006KT 13/11 A2984 RMK A01 T01290114  RH  091%=      5-min Rain = 0
KES1 250623Z 17006KT 13/11 A2984 RMK A01 T01290114  RH  091%=      5-min Rain = 0
KES1 250624Z 17006KT 13/11 A2984 RMK A01 T01290114  RH  091%=      5-min Rain = 0
KES1 250625Z 17006KT 13/11 A2984 RMK A01 T01290114  RH  091%=      5-min Rain = 0
KES1 250626Z 17005KT 13/11 A2984 RMK A01 T01280113  RH  091%=      5-min Rain = 0
KES1 250627Z 16006KT 13/11 A2984 RMK A01 T01280113  RH  091%=      5-min Rain = 0
KES1 250628Z 17006KT 13/11 A2984 RMK A01 T01280113  RH  091%=      5-min Rain = 0
KES1 250629Z 17007KT 13/11 A2984 RMK A01 T01280113  RH  091%=      5-min Rain = 0
KES1 250630Z 17007KT 13/11 A2984 RMK A01 T01270113  RH  091%=      5-min Rain = 0
KES1 250631Z 17007KT 13/11 A2984 RMK A01 T01270113  RH  091%=      5-min Rain = 0
KES1 250632Z 17006KT 13/11 A2984 RMK A01 T01270113  RH  091%=      5-min Rain = 0
KES1 250633Z 17006KT 13/11 A2984 RMK A01 T01270113  RH  091%=      5-min Rain = 0
KES1 250634Z 16005KT 13/11 A2984 RMK A01 T01280113  RH  091%=      5-min Rain = 0
KES1 250635Z 17006KT 13/11 A2984 RMK A01 T01280113  RH  091%=      5-min Rain = 0
KES1 250636Z 18005KT 13/11 A2984 RMK A01 T01270113  RH  091%=      5-min Rain = 0
KES1 250637Z 18005KT 13/11 A2984 RMK A01 T01280113  RH  091%=      5-min Rain = 0
KES1 250638Z 19004KT 13/11 A2984 RMK A01 T01270113  RH  091%=      5-min Rain = 0
KES1 250639Z 19005KT 13/11 A2984 RMK A01 T01270112  RH  091%=      5-min Rain = 0
KES1 250640Z 19004KT 13/11 A2984 RMK A01 T01270112  RH  091%=      5-min Rain = 0
KES1 250641Z 19004KT 13/11 A2984 RMK A01 T01260111  RH  091%=      5-min Rain = 0
KES1 250642Z 20004KT 13/11 A2983 RMK A01 T01260111  RH  091%=      5-min Rain = 0
KES1 250643Z 21003KT 13/11 A2983 RMK A01 T01250111  RH  091%=      5-min Rain = 0
KES1 250644Z 22004KT 12/11 A2983 RMK A01 T01240109  RH  091%=      5-min Rain = 0
KES1 250645Z 23003KT 12/11 A2983 RMK A01 T01230109  RH  091%=      5-min Rain = 0
KES1 250646Z 23003KT 12/11 A2983 RMK A01 T01230109  RH  091%=      5-min Rain = 0
KES1 250647Z 23003KT 12/11 A2983 RMK A01 T01210107  RH  091%=      5-min Rain = 0
KES1 250648Z 22004KT 12/11 A2983 RMK A01 T01190105  RH  091%=      5-min Rain = 0
KES1 250649Z 21004KT 12/10 A2983 RMK A01 T01170103  RH  091%=      5-min Rain = 0
KES1 250650Z 22004KT 12/10 A2983 RMK A01 T01150102  RH  092%=      5-min Rain = 0
KES1 250651Z 25003KT 11/10 A2983 RMK A01 T01140103  RH  093%=      5-min Rain = 0
KES1 250652Z 26004KT 11/10 A2983 RMK A01 T01130102  RH  093%=      5-min Rain = 0
KES1 250653Z 23005KT 11/10 A2983 RMK A01 T01110100  RH  093%=      5-min Rain = 0
KES1 250654Z 24005KT 11/10 A2983 RMK A01 T01100100  RH  093%=      5-min Rain = 0
KES1 250655Z 25005KT 11/10 A2983 RMK A01 T01090099  RH  094%=      5-min Rain = 0
KES1 250656Z 26005KT 11/10 A2983 RMK A01 T01080099  RH  094%=      5-min Rain = 0
KES1 250657Z 26005KT 11/10 A2983 RMK A01 T01080100  RH  095%=      5-min Rain = 0
KES1 250658Z 25005KT 11/10 A2983 RMK A01 T01080101  RH  095%=      5-min Rain = 0
KES1 250659Z 24005KT 11/10 A2983 RMK A01 T01070100  RH  095%=      5-min Rain = 0
KES1 250700Z 25004KT 11/10 A2983 RMK A01 T01060100  RH  095%=      5-min Rain = 0
KES1 250701Z 26005KT 11/10 A2983 RMK A01 T01060100  RH  096%=      5-min Rain = 0
KES1 250702Z 24005KT 11/10 A2983 RMK A01 T01060100  RH  096%=      5-min Rain = 0
KES1 250703Z 23005KT 11/10 A2983 RMK A01 T01060100  RH  096%=      5-min Rain = 0
KES1 250704Z 23005KT 11/10 A2983 RMK A01 T01060100  RH  096%=      5-min Rain = 0
KES1 250705Z 24005KT 11/10 A2983 RMK A01 T01060100  RH  096%=      5-min Rain = 0
KES1 250706Z 25005KT 11/10 A2983 RMK A01 T01060101  RH  096%=      5-min Rain = 0
KES1 250707Z 26005KT 11/10 A2983 RMK A01 T01060101  RH  096%=      5-min Rain = 0
KES1 250708Z 25005KT 11/10 A2983 RMK A01 T01060101  RH  096%=      5-min Rain = 0
KES1 250709Z 24005KT 11/10 A2983 RMK A01 T01060101  RH  097%=      5-min Rain = 0
KES1 250710Z 23005KT 11/10 A2983 RMK A01 T01060100  RH  096%=      5-min Rain = 0
KES1 250711Z 24005KT 11/10 A2983 RMK A01 T01050099  RH  096%=      5-min Rain = 0
KES1 250712Z 23005KT 10/10 A2983 RMK A01 T01040099  RH  096%=      5-min Rain = 0
KES1 250713Z 23005KT 11/10 A2983 RMK A01 T01050099  RH  096%=      5-min Rain = 0
KES1 250714Z 23005KT 11/10 A2983 RMK A01 T01050099  RH  097%=      5-min Rain = 0
KES1 250715Z 23006KT 11/10 A2983 RMK A01 T01050100  RH  097%=      5-min Rain = 0
KES1 250716Z 23006KT 11/10 A2983 RMK A01 T01060100  RH  097%=      5-min Rain = 0
KES1 250717Z 23006KT 11/10 A2983 RMK A01 T01060100  RH  097%=      5-min Rain = 0
KES1 250718Z 22006KT 11/10 A2983 RMK A01 T01060100  RH  097%=      5-min Rain = 0
KES1 250719Z 22006KT 11/10 A2982 RMK A01 T01060101  RH  097%=      5-min Rain = 0
KES1 250720Z 22005KT 11/10 A2982 RMK A01 T01060101  RH  097%=      5-min Rain = 0
KES1 250721Z 23005KT 11/10 A2982 RMK A01 T01060101  RH  097%=      5-min Rain = 0
KES1 250722Z 23005KT 11/10 A2982 RMK A01 T01070101  RH  097%=      5-min Rain = 0
KES1 250723Z 22004KT 11/10 A2982 RMK A01 T01070102  RH  097%=      5-min Rain = 0
KES1 250724Z 22005KT 11/10 A2982 RMK A01 T01070101  RH  096%=      5-min Rain = 0
KES1 250725Z 22005KT 11/10 A2982 RMK A01 T01070101  RH  096%=      5-min Rain = 0
KES1 250726Z 23005KT 11/10 A2982 RMK A01 T01070102  RH  096%=      5-min Rain = 0
KES1 250727Z 23004KT 11/10 A2982 RMK A01 T01080102  RH  096%=      5-min Rain = 0
KES1 250728Z 22004KT 11/10 A2982 RMK A01 T01070101  RH  096%=      5-min Rain = 0
KES1 250729Z 22005KT 11/10 A2982 RMK A01 T01070101  RH  096%=      5-min Rain = 0
KES1 250730Z 22005KT 11/10 A2982 RMK A01 T01070101  RH  096%=      5-min Rain = 0
KES1 250731Z 22005KT 11/10 A2982 RMK A01 T01080102  RH  096%=      5-min Rain = 0
KES1 250732Z 22005KT 11/10 A2982 RMK A01 T01080102  RH  096%=      5-min Rain = 0
KES1 250733Z 21005KT 11/10 A2982 RMK A01 T01090103  RH  096%=      5-min Rain = 0
KES1 250734Z 22005KT 11/10 A2982 RMK A01 T01090103  RH  096%=      5-min Rain = 0
KES1 250735Z 22005KT 11/10 A2982 RMK A01 T01100104  RH  096%=      5-min Rain = 0
KES1 250736Z 22005KT 11/10 A2982 RMK A01 T01100104  RH  096%=      5-min Rain = 0
KES1 250737Z 21004KT 11/10 A2982 RMK A01 T01110104  RH  096%=      5-min Rain = 0
KES1 250738Z 21005KT 11/10 A2982 RMK A01 T01110104  RH  096%=      5-min Rain = 0
KES1 250739Z 21005KT 11/10 A2982 RMK A01 T01110104  RH  095%=      5-min Rain = 0
KES1 250740Z 22004KT 11/10 A2982 RMK A01 T01120104  RH  095%=      5-min Rain = 0
KES1 250741Z 21004KT 11/11 A2982 RMK A01 T01120105  RH  095%=      5-min Rain = 0
KES1 250742Z 21004KT 11/11 A2982 RMK A01 T01130105  RH  095%=      5-min Rain = 0
KES1 250743Z 21004KT 11/11 A2982 RMK A01 T01130105  RH  095%=      5-min Rain = 0
KES1 250744Z 21004KT 11/11 A2982 RMK A01 T01130105  RH  095%=      5-min Rain = 0
KES1 250745Z 21004KT 11/11 A2982 RMK A01 T01140105  RH  094%=      5-min Rain = 0
KES1 250746Z 21004KT 11/11 A2982 RMK A01 T01140105  RH  094%=      5-min Rain = 0
KES1 250747Z 21004KT 11/11 A2982 RMK A01 T01140105  RH  094%=      5-min Rain = 0
KES1 250748Z 21004KT 12/11 A2982 RMK A01 T01150105  RH  094%=      5-min Rain = 0
KES1 250749Z 21005KT 12/11 A2982 RMK A01 T01150105  RH  094%=      5-min Rain = 0
KES1 250750Z 21005KT 12/11 A2982 RMK A01 T01150105  RH  094%=      5-min Rain = 0
KES1 250751Z 21005KT 12/11 A2982 RMK A01 T01150105  RH  094%=      5-min Rain = 0
KES1 250752Z 21006KT 11/10 A2982 RMK A01 T01140104  RH  093%=      5-min Rain = 0
KES1 250753Z 21006KT 11/10 A2982 RMK A01 T01140103  RH  093%=      5-min Rain = 0
KES1 250754Z 22006KT 11/10 A2982 RMK A01 T01130103  RH  093%=      5-min Rain = 0
KES1 250755Z 22006KT 11/10 A2982 RMK A01 T01130103  RH  094%=      5-min Rain = 0
KES1 250756Z 22006KT 11/10 A2982 RMK A01 T01130103  RH  094%=      5-min Rain = 0
KES1 250757Z 22006KT 11/10 A2982 RMK A01 T01130103  RH  094%=      5-min Rain = 0
KES1 250758Z 22006KT 11/10 A2982 RMK A01 T01130103  RH  094%=      5-min Rain = 0
KES1 250759Z 22005KT 11/10 A2982 RMK A01 T01130104  RH  094%=      5-min Rain = 0
KES1 250800Z 23006KT 11/10 A2982 RMK A01 T01130103  RH  094%=      5-min Rain = 0
KES1 250801Z 23005KT 11/10 A2982 RMK A01 T01130104  RH  094%=      5-min Rain = 0
KES1 250802Z 23006KT 11/10 A2982 RMK A01 T01130104  RH  094%=      5-min Rain = 0
KES1 250803Z 23006KT 11/10 A2982 RMK A01 T01130103  RH  094%=      5-min Rain = 0
KES1 250804Z 23006KT 11/10 A2982 RMK A01 T01130104  RH  094%=      5-min Rain = 0
KES1 250805Z 23006KT 11/10 A2981 RMK A01 T01130104  RH  094%=      5-min Rain = 0
KES1 250806Z 23006KT 11/10 A2981 RMK A01 T01130103  RH  094%=      5-min Rain = 0
KES1 250807Z 23006KT 11/10 A2981 RMK A01 T01130103  RH  094%=      5-min Rain = 0
KES1 250808Z 23005KT 11/10 A2981 RMK A01 T01120103  RH  094%=      5-min Rain = 0
KES1 250809Z 23006KT 11/10 A2981 RMK A01 T01130103  RH  094%=      5-min Rain = 0
KES1 250810Z 24006KT 11/10 A2981 RMK A01 T01130103  RH  094%=      5-min Rain = 0
KES1 250811Z 24006KT 11/10 A2981 RMK A01 T01120102  RH  094%=      5-min Rain = 0
KES1 250812Z 24006KT 11/10 A2981 RMK A01 T01110102  RH  094%=      5-min Rain = 0
KES1 250813Z 24006KT 11/10 A2981 RMK A01 T01110101  RH  094%=      5-min Rain = 0
KES1 250814Z 24006KT 11/10 A2981 RMK A01 T01100101  RH  094%=      5-min Rain = 0
KES1 250815Z 24006KT 11/10 A2981 RMK A01 T01100100  RH  094%=      5-min Rain = 0
KES1 250816Z 24005KT 11/10 A2981 RMK A01 T01090100  RH  094%=      5-min Rain = 0
KES1 250817Z 24005KT 11/10 A2981 RMK A01 T01090100  RH  094%=      5-min Rain = 0
KES1 250818Z 25005KT 11/10 A2981 RMK A01 T01080099  RH  094%=      5-min Rain = 0
KES1 250819Z 25005KT 11/10 A2981 RMK A01 T01080099  RH  094%=      5-min Rain = 0
KES1 250820Z 25005KT 11/10 A2981 RMK A01 T01070098  RH  094%=      5-min Rain = 0
KES1 250821Z 24005KT 11/10 A2981 RMK A01 T01060098  RH  094%=      5-min Rain = 0
KES1 250822Z 25005KT 11/10 A2981 RMK A01 T01050097  RH  094%=      5-min Rain = 0
KES1 250823Z 24005KT 11/10 A2981 RMK A01 T01050097  RH  095%=      5-min Rain = 0
KES1 250824Z 24006KT 10/10 A2981 RMK A01 T01040096  RH  095%=      5-min Rain = 0
KES1 250825Z 24006KT 10/10 A2981 RMK A01 T01040096  RH  095%=      5-min Rain = 0
KES1 250826Z 24006KT 10/10 A2981 RMK A01 T01030096  RH  095%=      5-min Rain = 0
KES1 250827Z 24006KT 10/10 A2981 RMK A01 T01040097  RH  095%=      5-min Rain = 0
KES1 250828Z 24006KT 10/10 A2981 RMK A01 T01040097  RH  096%=      5-min Rain = 0
KES1 250829Z 24005KT 11/10 A2981 RMK A01 T01050099  RH  096%=      5-min Rain = 0
KES1 250830Z 25006KT 11/10 A2981 RMK A01 T01060100  RH  096%=      5-min Rain = 0
KES1 250831Z 25005KT 11/10 A2981 RMK A01 T01070101  RH  096%=      5-min Rain = 0
KES1 250832Z 25005KT 11/10 A2981 RMK A01 T01080102  RH  096%=      5-min Rain = 0
KES1 250833Z 25005KT 11/10 A2981 RMK A01 T01090103  RH  096%=      5-min Rain = 0
KES1 250834Z 25004KT 11/10 A2981 RMK A01 T01100103  RH  096%=      5-min Rain = 0
KES1 250835Z 25005KT 11/10 A2981 RMK A01 T01110103  RH  095%=      5-min Rain = 0
KES1 250836Z 26005KT 11/10 A2981 RMK A01 T01110103  RH  095%=      5-min Rain = 0
KES1 250837Z 26005KT 11/10 A2981 RMK A01 T01110102  RH  094%=      5-min Rain = 0
KES1 250838Z 26005KT 11/10 A2981 RMK A01 T01110102  RH  094%=      5-min Rain = 0
KES1 250839Z 26005KT 11/10 A2981 RMK A01 T01110103  RH  094%=      5-min Rain = 0
KES1 250840Z 26005KT 11/10 A2981 RMK A01 T01120103  RH  094%=      5-min Rain = 0
KES1 250841Z 26005KT 11/10 A2981 RMK A01 T01110102  RH  094%=      5-min Rain = 0
KES1 250842Z 26005KT 11/10 A2981 RMK A01 T01110102  RH  094%=      5-min Rain = 0
KES1 250843Z 27005KT 11/10 A2981 RMK A01 T01110102  RH  094%=      5-min Rain = 0
KES1 250844Z 27005KT 11/10 A2981 RMK A01 T01110102  RH  094%=      5-min Rain = 0
KES1 250845Z 27005KT 11/10 A2981 RMK A01 T01110102  RH  094%=      5-min Rain = 0
KES1 250846Z 27004KT 11/10 A2981 RMK A01 T01110102  RH  094%=      5-min Rain = 0
KES1 250847Z 26005KT 11/10 A2981 RMK A01 T01110102  RH  094%=      5-min Rain = 0
KES1 250848Z 26005KT 11/10 A2981 RMK A01 T01100101  RH  094%=      5-min Rain = 0
KES1 250849Z 27004KT 11/10 A2981 RMK A01 T01100101  RH  094%=      5-min Rain = 0
KES1 250850Z 27004KT 11/10 A2981 RMK A01 T01100101  RH  094%=      5-min Rain = 0
KES1 250851Z 27004KT 11/10 A2981 RMK A01 T01100102  RH  094%=      5-min Rain = 0
KES1 250852Z 27004KT 11/10 A2981 RMK A01 T01100102  RH  095%=      5-min Rain = 0
KES1 250853Z 28004KT 11/10 A2981 RMK A01 T01100103  RH  095%=      5-min Rain = 0
KES1 250854Z 27003KT 11/10 A2981 RMK A01 T01110104  RH  095%=      5-min Rain = 0
KES1 250855Z 28003KT 11/11 A2981 RMK A01 T01120105  RH  095%=      5-min Rain = 0
KES1 250856Z 28003KT 11/11 A2981 RMK A01 T01130105  RH  095%=      5-min Rain = 0
KES1 250857Z 28004KT 11/11 A2981 RMK A01 T01130106  RH  095%=      5-min Rain = 0
KES1 250858Z 28003KT 11/11 A2981 RMK A01 T01130105  RH  095%=      5-min Rain = 0
KES1 250859Z 27002KT 11/11 A2981 RMK A01 T01140105  RH  095%=      5-min Rain = 0
KES1 250900Z 27002KT 11/11 A2981 RMK A01 T01140105  RH  095%=      5-min Rain = 0
KES1 250901Z 26002KT 11/11 A2981 RMK A01 T01140105  RH  094%=      5-min Rain = 0
KES1 250902Z 25003KT 11/11 A2981 RMK A01 T01140105  RH  094%=      5-min Rain = 0
KES1 250903Z 26003KT 11/10 A2981 RMK A01 T01130104  RH  094%=      5-min Rain = 0
KES1 250904Z 25003KT 11/11 A2981 RMK A01 T01130105  RH  094%=      5-min Rain = 0
KES1 250905Z 26003KT 11/11 A2981 RMK A01 T01140105  RH  095%=      5-min Rain = 0
KES1 250906Z 24004KT 11/11 A2981 RMK A01 T01140105  RH  094%=      5-min Rain = 0
KES1 250907Z 24004KT 11/11 A2981 RMK A01 T01140105  RH  094%=      5-min Rain = 0
KES1 250908Z 24004KT 11/11 A2981 RMK A01 T01140105  RH  094%=      5-min Rain = 0
KES1 250909Z 26004KT 11/11 A2981 RMK A01 T01140105  RH  094%=      5-min Rain = 0
KES1 250910Z 26005KT 11/11 A2981 RMK A01 T01140105  RH  094%=      5-min Rain = 0
KES1 250911Z 25004KT 12/11 A2981 RMK A01 T01150106  RH  095%=      5-min Rain = 0
KES1 250912Z 26003KT 12/11 A2981 RMK A01 T01150107  RH  094%=      5-min Rain = 0
KES1 250913Z 24002KT 12/11 A2981 RMK A01 T01150106  RH  094%=      5-min Rain = 0
KES1 250914Z 25004KT 12/11 A2981 RMK A01 T01150106  RH  094%=      5-min Rain = 0
KES1 250915Z 25003KT 12/11 A2981 RMK A01 T01160107  RH  094%=      5-min Rain = 0
KES1 250916Z 24003KT 12/11 A2981 RMK A01 T01160106  RH  094%=      5-min Rain = 0
KES1 250917Z 24003KT 12/11 A2981 RMK A01 T01150106  RH  094%=      5-min Rain = 0
KES1 250918Z 22001KT 12/11 A2981 RMK A01 T01150106  RH  094%=      5-min Rain = 0
KES1 250919Z 23001KT 12/11 A2981 RMK A01 T01150105  RH  094%=      5-min Rain = 0
KES1 250920Z 24001KT 12/11 A2981 RMK A01 T01150105  RH  094%=      5-min Rain = 0
KES1 250921Z 22002KT 12/11 A2981 RMK A01 T01150106  RH  094%=      5-min Rain = 0
KES1 250922Z 22002KT 12/11 A2981 RMK A01 T01150105  RH  094%=      5-min Rain = 0
KES1 250923Z 22003KT 12/11 A2981 RMK A01 T01150105  RH  094%=      5-min Rain = 0
KES1 250924Z 21003KT 12/11 A2981 RMK A01 T01150106  RH  094%=      5-min Rain = 0
KES1 250925Z 22002KT 11/11 A2981 RMK A01 T01140106  RH  094%=      5-min Rain = 0
KES1 250926Z 22003KT 11/11 A2981 RMK A01 T01140106  RH  094%=      5-min Rain = 0
KES1 250927Z 21002KT 12/11 A2981 RMK A01 T01150106  RH  095%=      5-min Rain = 0
KES1 250928Z 20002KT 12/11 A2981 RMK A01 T01150106  RH  094%=      5-min Rain = 0
KES1 250929Z 21003KT 12/11 A2981 RMK A01 T01150106  RH  094%=      5-min Rain = 0
KES1 250930Z 23002KT 12/11 A2981 RMK A01 T01150106  RH  094%=      5-min Rain = 0
KES1 250931Z 20002KT 12/11 A2981 RMK A01 T01150106  RH  094%=      5-min Rain = 0
KES1 250932Z 21002KT 12/11 A2981 RMK A01 T01150106  RH  094%=      5-min Rain = 0
KES1 250933Z 22003KT 12/11 A2981 RMK A01 T01150106  RH  094%=      5-min Rain = 0
KES1 250934Z 22003KT 12/11 A2981 RMK A01 T01150106  RH  094%=      5-min Rain = 0
KES1 250935Z 23002KT 12/11 A2981 RMK A01 T01150106  RH  095%=      5-min Rain = 0
KES1 250936Z 25002KT 12/11 A2981 RMK A01 T01150107  RH  095%=      5-min Rain = 0
KES1 250937Z 23001KT 12/11 A2981 RMK A01 T01150107  RH  094%=      5-min Rain = 0
KES1 250938Z 26002KT 12/11 A2981 RMK A01 T01150106  RH  094%=      5-min Rain = 0
KES1 250939Z 24001KT 12/11 A2981 RMK A01 T01150106  RH  094%=      5-min Rain = 0
KES1 250940Z 24001KT 12/11 A2981 RMK A01 T01150107  RH  094%=      5-min Rain = 0
KES1 250941Z 24001KT 12/11 A2981 RMK A01 T01150107  RH  094%=      5-min Rain = 0
KES1 250942Z 24001KT 12/11 A2981 RMK A01 T01160107  RH  094%=      5-min Rain = 0
KES1 250943Z 22002KT 12/11 A2981 RMK A01 T01160107  RH  094%=      5-min Rain = 0
KES1 250944Z 21001KT 12/11 A2981 RMK A01 T01170108  RH  094%=      5-min Rain = 0
KES1 250945Z 21001KT 12/11 A2981 RMK A01 T01170108  RH  094%=      5-min Rain = 0
KES1 250946Z 23002KT 12/11 A2981 RMK A01 T01160107  RH  094%=      5-min Rain = 0
KES1 250947Z 22002KT 12/11 A2981 RMK A01 T01160107  RH  094%=      5-min Rain = 0
KES1 250948Z 24002KT 12/11 A2981 RMK A01 T01160107  RH  094%=      5-min Rain = 0
KES1 250949Z 22002KT 12/11 A2981 RMK A01 T01170107  RH  094%=      5-min Rain = 0
KES1 250950Z 22002KT 12/11 A2981 RMK A01 T01160107  RH  094%=      5-min Rain = 0
KES1 250951Z 24002KT 12/11 A2981 RMK A01 T01160107  RH  094%=      5-min Rain = 0
KES1 250952Z 23001KT 12/11 A2981 RMK A01 T01170107  RH  094%=      5-min Rain = 0
KES1 250953Z 20001KT 12/11 A2981 RMK A01 T01170107  RH  093%=      5-min Rain = 0
KES1 250954Z 19001KT 12/11 A2981 RMK A01 T01170107  RH  093%=      5-min Rain = 0
KES1 250955Z 32000KT 12/11 A2981 RMK A01 T01170106  RH  093%=      5-min Rain = 0
KES1 250956Z 23001KT 12/11 A2981 RMK A01 T01170106  RH  093%=      5-min Rain = 0
KES1 250957Z 26000KT 12/11 A2981 RMK A01 T01170107  RH  093%=      5-min Rain = 0
KES1 250958Z 27002KT 12/11 A2981 RMK A01 T01170107  RH  093%=      5-min Rain = 0
KES1 250959Z 25002KT 12/11 A2981 RMK A01 T01180107  RH  093%=      5-min Rain = 0
KES1 251000Z 27004KT 12/11 A2981 RMK A01 T01180107  RH  093%=      5-min Rain = 0
KES1 251001Z 26004KT 12/11 A2981 RMK A01 T01180107  RH  093%=      5-min Rain = 0
KES1 251002Z 26005KT 12/11 A2981 RMK A01 T01190107  RH  092%=      5-min Rain = 0
KES1 251003Z 26006KT 12/11 A2981 RMK A01 T01180106  RH  092%=      5-min Rain = 0
KES1 251004Z 26006KT 12/11 A2981 RMK A01 T01180106  RH  092%=      5-min Rain = 0
KES1 251005Z 26006KT 12/11 A2981 RMK A01 T01180106  RH  092%=      5-min Rain = 0
KES1 251006Z 27006KT 12/11 A2981 RMK A01 T01170105  RH  092%=      5-min Rain = 0
KES1 251007Z 27006KT 12/11 A2981 RMK A01 T01170106  RH  093%=      5-min Rain = 0
KES1 251008Z 27007KT 12/11 A2981 RMK A01 T01170106  RH  093%=      5-min Rain = 0
KES1 251009Z 27006KT 12/11 A2981 RMK A01 T01170106  RH  093%=      5-min Rain = 0
KES1 251010Z 27007KT 12/11 A2981 RMK A01 T01170106  RH  093%=      5-min Rain = 0
KES1 251011Z 26006KT 12/11 A2981 RMK A01 T01170106  RH  093%=      5-min Rain = 0
KES1 251012Z 27007KT 12/11 A2981 RMK A01 T01160106  RH  093%=      5-min Rain = 0
KES1 251013Z 28007KT 12/11 A2981 RMK A01 T01170106  RH  093%=      5-min Rain = 0
KES1 251014Z 28006KT 12/11 A2982 RMK A01 T01160106  RH  093%=      5-min Rain = 0
KES1 251015Z 28006KT 12/11 A2982 RMK A01 T01170106  RH  093%=      5-min Rain = 0
KES1 251016Z 28006KT 12/11 A2982 RMK A01 T01160106  RH  093%=      5-min Rain = 0
KES1 251017Z 28006KT 12/11 A2982 RMK A01 T01160106  RH  093%=      5-min Rain = 0
KES1 251018Z 27006KT 12/11 A2982 RMK A01 T01160106  RH  093%=      5-min Rain = 0
KES1 251019Z 27006KT 12/11 A2982 RMK A01 T01160105  RH  093%=      5-min Rain = 0
KES1 251020Z 27006KT 12/11 A2982 RMK A01 T01150105  RH  093%=      5-min Rain = 0
KES1 251021Z 27006KT 12/11 A2982 RMK A01 T01150105  RH  093%=      5-min Rain = 0
KES1 251022Z 27006KT 12/11 A2982 RMK A01 T01150105  RH  094%=      5-min Rain = 0
KES1 251023Z 27005KT 11/10 A2982 RMK A01 T01140104  RH  094%=      5-min Rain = 0
KES1 251024Z 27005KT 11/10 A2982 RMK A01 T01140104  RH  094%=      5-min Rain = 0
KES1 251025Z 27005KT 11/10 A2982 RMK A01 T01140104  RH  094%=      5-min Rain = 0
KES1 251026Z 27006KT 11/10 A2982 RMK A01 T01140104  RH  094%=      5-min Rain = 0
KES1 251027Z 27005KT 11/10 A2982 RMK A01 T01130104  RH  094%=      5-min Rain = 0
KES1 251028Z 27005KT 11/10 A2982 RMK A01 T01130104  RH  094%=      5-min Rain = 0
KES1 251029Z 27006KT 11/10 A2982 RMK A01 T01130104  RH  094%=      5-min Rain = 0
KES1 251030Z 27005KT 11/10 A2982 RMK A01 T01130103  RH  094%=      5-min Rain = 0
KES1 251031Z 27005KT 11/10 A2982 RMK A01 T01120103  RH  094%=      5-min Rain = 0
KES1 251032Z 26006KT 11/10 A2982 RMK A01 T01120103  RH  094%=      5-min Rain = 0
KES1 251033Z 26006KT 11/10 A2982 RMK A01 T01120103  RH  094%=      5-min Rain = 0
KES1 251034Z 26006KT 11/10 A2982 RMK A01 T01120103  RH  094%=      5-min Rain = 0
KES1 251035Z 26007KT 11/10 A2982 RMK A01 T01110103  RH  094%=      5-min Rain = 0
KES1 251036Z 27006KT 11/10 A2982 RMK A01 T01110103  RH  095%=      5-min Rain = 0
KES1 251037Z 26005KT 11/10 A2982 RMK A01 T01110103  RH  094%=      5-min Rain = 0
KES1 251038Z 27005KT 11/10 A2982 RMK A01 T01110103  RH  095%=      5-min Rain = 0
KES1 251039Z 27004KT 11/10 A2982 RMK A01 T01120103  RH  095%=      5-min Rain = 0
KES1 251040Z 27004KT 11/10 A2982 RMK A01 T01110103  RH  095%=      5-min Rain = 0
KES1 251041Z 27004KT 11/10 A2982 RMK A01 T01110103  RH  094%=      5-min Rain = 0
KES1 251042Z 27005KT 11/10 A2982 RMK A01 T01110102  RH  094%=      5-min Rain = 0
KES1 251043Z 27004KT 11/10 A2982 RMK A01 T01110102  RH  094%=      5-min Rain = 0
KES1 251044Z 26004KT 11/10 A2982 RMK A01 T01110102  RH  094%=      5-min Rain = 0
KES1 251045Z 26004KT 11/10 A2982 RMK A01 T01110102  RH  094%=      5-min Rain = 0
KES1 251046Z 26004KT 11/10 A2982 RMK A01 T01110102  RH  094%=      5-min Rain = 0
KES1 251047Z 26004KT 11/10 A2982 RMK A01 T01110102  RH  094%=      5-min Rain = 0
KES1 251048Z 26004KT 11/10 A2982 RMK A01 T01110102  RH  094%=      5-min Rain = 0
KES1 251049Z 25005KT 11/10 A2982 RMK A01 T01110102  RH  095%=      5-min Rain = 0
KES1 251050Z 25004KT 11/10 A2982 RMK A01 T01110102  RH  095%=      5-min Rain = 0
KES1 251051Z 25004KT 11/10 A2982 RMK A01 T01110102  RH  094%=      5-min Rain = 0
KES1 251052Z 26004KT 11/10 A2982 RMK A01 T01110102  RH  094%=      5-min Rain = 0
KES1 251053Z 27004KT 11/10 A2982 RMK A01 T01110103  RH  095%=      5-min Rain = 0
KES1 251054Z 27004KT 11/10 A2982 RMK A01 T01110102  RH  094%=      5-min Rain = 0
KES1 251055Z 27004KT 11/10 A2982 RMK A01 T01110103  RH  094%=      5-min Rain = 0
KES1 251056Z 26004KT 11/10 A2982 RMK A01 T01110103  RH  094%=      5-min Rain = 0
KES1 251057Z 26005KT 11/10 A2982 RMK A01 T01120103  RH  094%=      5-min Rain = 0
KES1 251058Z 26005KT 11/10 A2982 RMK A01 T01120102  RH  094%=      5-min Rain = 0
KES1 251059Z 26006KT 11/10 A2982 RMK A01 T01110102  RH  094%=      5-min Rain = 0
KES1 251100Z 26005KT 11/10 A2982 RMK A01 T01110102  RH  094%=      5-min Rain = 0
KES1 251101Z 26006KT 11/10 A2982 RMK A01 T01110102  RH  094%=      5-min Rain = 0
KES1 251102Z 26007KT 11/10 A2982 RMK A01 T01120103  RH  094%=      5-min Rain = 0
KES1 251103Z 27006KT 11/10 A2982 RMK A01 T01130104  RH  094%=      5-min Rain = 0
KES1 251104Z 27007KT 11/11 A2982 RMK A01 T01140105  RH  094%=      5-min Rain = 0
KES1 251105Z 27006KT 12/11 A2982 RMK A01 T01150105  RH  093%=      5-min Rain = 0
KES1 251106Z 27005KT 12/11 A2982 RMK A01 T01160105  RH  093%=      5-min Rain = 0
KES1 251107Z 27006KT 12/11 A2982 RMK A01 T01160105  RH  093%=      5-min Rain = 0
KES1 251108Z 27005KT 12/11 A2982 RMK A01 T01170105  RH  092%=      5-min Rain = 0
KES1 251109Z 26005KT 12/11 A2982 RMK A01 T01170105  RH  092%=      5-min Rain = 0
KES1 251110Z 26004KT 12/11 A2982 RMK A01 T01170105  RH  092%=      5-min Rain = 0
KES1 251111Z 26006KT 12/10 A2982 RMK A01 T01170104  RH  092%=      5-min Rain = 0
KES1 251112Z 26006KT 12/10 A2982 RMK A01 T01170104  RH  092%=      5-min Rain = 0
KES1 251113Z 27006KT 12/10 A2982 RMK A01 T01170104  RH  092%=      5-min Rain = 0
KES1 251114Z 27006KT 12/10 A2982 RMK A01 T01170104  RH  092%=      5-min Rain = 0
KES1 251115Z 27007KT 12/10 A2982 RMK A01 T01170104  RH  092%=      5-min Rain = 0
KES1 251116Z 27008KT 12/11 A2982 RMK A01 T01170105  RH  092%=      5-min Rain = 0
KES1 251117Z 27008KT 12/11 A2982 RMK A01 T01170105  RH  092%=      5-min Rain = 0
KES1 251118Z 27008KT 12/11 A2982 RMK A01 T01170105  RH  092%=      5-min Rain = 0
KES1 251119Z 27008KT 12/11 A2982 RMK A01 T01180105  RH  092%=      5-min Rain = 0
KES1 251120Z 27007KT 12/11 A2982 RMK A01 T01180105  RH  092%=      5-min Rain = 0
KES1 251121Z 27008KT 12/11 A2982 RMK A01 T01180105  RH  091%=      5-min Rain = 0
KES1 251122Z 27008KT 12/10 A2982 RMK A01 T01180104  RH  092%=      5-min Rain = 0
KES1 251123Z 27008KT 12/11 A2982 RMK A01 T01180105  RH  092%=      5-min Rain = 0
KES1 251124Z 27007KT 12/11 A2982 RMK A01 T01180105  RH  092%=      5-min Rain = 0
KES1 251125Z 27008KT 12/11 A2982 RMK A01 T01180105  RH  091%=      5-min Rain = 0
KES1 251126Z 27008KT 12/11 A2982 RMK A01 T01190105  RH  091%=      5-min Rain = 0
KES1 251127Z 27008KT 12/11 A2982 RMK A01 T01200105  RH  091%=      5-min Rain = 0
KES1 251128Z 27008KT 12/11 A2982 RMK A01 T01200105  RH  091%=      5-min Rain = 0
KES1 251129Z 28008KT 12/11 A2983 RMK A01 T01200105  RH  091%=      5-min Rain = 0
KES1 251130Z 27007KT 12/11 A2982 RMK A01 T01200105  RH  090%=      5-min Rain = 0
KES1 251131Z 27007KT 12/10 A2982 RMK A01 T01200104  RH  090%=      5-min Rain = 0
KES1 251132Z 27007KT 12/10 A2983 RMK A01 T01190104  RH  090%=      5-min Rain = 0
KES1 251133Z 27007KT 12/10 A2983 RMK A01 T01190104  RH  091%=      5-min Rain = 0
KES1 251134Z 27006KT 12/10 A2983 RMK A01 T01190104  RH  090%=      5-min Rain = 0
KES1 251135Z 27007KT 12/10 A2983 RMK A01 T01190104  RH  090%=      5-min Rain = 0
KES1 251136Z 27008KT 12/10 A2983 RMK A01 T01190104  RH  090%=      5-min Rain = 0
KES1 251137Z 27007KT 12/10 A2983 RMK A01 T01190104  RH  090%=      5-min Rain = 0
KES1 251138Z 27007KT 12/10 A2983 RMK A01 T01190104  RH  090%=      5-min Rain = 0
KES1 251139Z 27007KT 12/10 A2983 RMK A01 T01190104  RH  090%=      5-min Rain = 0
KES1 251140Z 27006KT 12/10 A2983 RMK A01 T01190104  RH  090%=      5-min Rain = 0
KES1 251141Z 27006KT 12/10 A2983 RMK A01 T01190103  RH  090%=      5-min Rain = 0
KES1 251142Z 27007KT 12/10 A2983 RMK A01 T01190103  RH  090%=      5-min Rain = 0
KES1 251143Z 27007KT 12/10 A2983 RMK A01 T01190103  RH  090%=      5-min Rain = 0
KES1 251144Z 27007KT 12/10 A2983 RMK A01 T01180103  RH  090%=      5-min Rain = 0
KES1 251145Z 27007KT 12/10 A2983 RMK A01 T01180103  RH  090%=      5-min Rain = 0
KES1 251146Z 27006KT 12/10 A2983 RMK A01 T01180103  RH  090%=      5-min Rain = 0
KES1 251147Z 27007KT 12/10 A2983 RMK A01 T01180102  RH  090%=      5-min Rain = 0
KES1 251148Z 27006KT 12/10 A2983 RMK A01 T01180102  RH  090%=      5-min Rain = 0
KES1 251149Z 27006KT 12/10 A2983 RMK A01 T01180102  RH  090%=      5-min Rain = 0
KES1 251150Z 27006KT 12/10 A2983 RMK A01 T01180102  RH  090%=      5-min Rain = 0
KES1 251151Z 27006KT 12/10 A2983 RMK A01 T01180102  RH  090%=      5-min Rain = 0
KES1 251152Z 27005KT 12/10 A2983 RMK A01 T01180102  RH  090%=      5-min Rain = 0
KES1 251153Z 27005KT 12/10 A2983 RMK A01 T01180102  RH  090%=      5-min Rain = 0
KES1 251154Z 26005KT 12/10 A2983 RMK A01 T01180102  RH  090%=      5-min Rain = 0
KES1 251155Z 26006KT 12/10 A2983 RMK A01 T01180102  RH  090%=      5-min Rain = 0
KES1 251156Z 26006KT 12/10 A2983 RMK A01 T01180102  RH  090%=      5-min Rain = 0
KES1 251157Z 27006KT 12/10 A2983 RMK A01 T01180102  RH  090%=      5-min Rain = 0
KES1 251158Z 26007KT 12/10 A2983 RMK A01 T01180102  RH  090%=      5-min Rain = 0
KES1 251159Z 26006KT 12/10 A2983 RMK A01 T01190102  RH  090%=      5-min Rain = 0
KES1 251200Z 26005KT 12/10 A2983 RMK A01 T01190103  RH  089%=      5-min Rain = 0
KES1 251201Z 26006KT 12/10 A2983 RMK A01 T01190102  RH  089%=      5-min Rain = 0
KES1 251202Z 25006KT 12/10 A2983 RMK A01 T01190103  RH  090%=      5-min Rain = 0
KES1 251203Z 25006KT 12/10 A2983 RMK A01 T01190103  RH  090%=      5-min Rain = 0
KES1 251204Z 25006KT 12/10 A2983 RMK A01 T01190103  RH  090%=      5-min Rain = 0
KES1 251205Z 26005KT 12/10 A2983 RMK A01 T01190103  RH  090%=      5-min Rain = 0
KES1 251206Z 27005KT 12/10 A2983 RMK A01 T01200103  RH  089%=      5-min Rain = 0
KES1 251207Z 26004KT 12/10 A2983 RMK A01 T01200102  RH  089%=      5-min Rain = 0
KES1 251208Z 26004KT 12/10 A2983 RMK A01 T01200102  RH  089%=      5-min Rain = 0
KES1 251209Z 26005KT 12/10 A2983 RMK A01 T01200102  RH  089%=      5-min Rain = 0
KES1 251210Z 26004KT 12/10 A2984 RMK A01 T01200103  RH  089%=      5-min Rain = 0
KES1 251211Z 27004KT 12/10 A2984 RMK A01 T01210102  RH  089%=      5-min Rain = 0
KES1 251212Z 27004KT 12/10 A2984 RMK A01 T01200102  RH  089%=      5-min Rain = 0
KES1 251213Z 26004KT 12/10 A2984 RMK A01 T01210103  RH  089%=      5-min Rain = 0
KES1 251214Z 26005KT 12/10 A2984 RMK A01 T01210102  RH  089%=      5-min Rain = 0
KES1 251215Z 26004KT 12/10 A2984 RMK A01 T01210102  RH  088%=      5-min Rain = 0
KES1 251216Z 26005KT 12/10 A2984 RMK A01 T01220103  RH  088%=      5-min Rain = 0
KES1 251217Z 27005KT 12/10 A2984 RMK A01 T01220102  RH  088%=      5-min Rain = 0
KES1 251218Z 27007KT 12/10 A2984 RMK A01 T01220103  RH  088%=      5-min Rain = 0
KES1 251219Z 27007KT 12/10 A2984 RMK A01 T01230103  RH  087%=      5-min Rain = 0
KES1 251220Z 28008KT 12/10 A2984 RMK A01 T01240103  RH  087%=      5-min Rain = 0
KES1 251221Z 28008KT 13/10 A2984 RMK A01 T01250103  RH  087%=      5-min Rain = 0
KES1 251222Z 27007KT 13/10 A2984 RMK A01 T01250103  RH  087%=      5-min Rain = 0
KES1 251223Z 27008KT 13/10 A2984 RMK A01 T01250103  RH  087%=      5-min Rain = 0
KES1 251224Z 27008KT 13/10 A2984 RMK A01 T01250103  RH  086%=      5-min Rain = 0
KES1 251225Z 27008KT 13/10 A2984 RMK A01 T01250103  RH  086%=      5-min Rain = 0
KES1 251226Z 27007KT 13/10 A2984 RMK A01 T01250103  RH  086%=      5-min Rain = 0
KES1 251227Z 27007KT 13/10 A2984 RMK A01 T01250103  RH  087%=      5-min Rain = 0
KES1 251228Z 27008KT 13/10 A2984 RMK A01 T01250103  RH  087%=      5-min Rain = 0
KES1 251229Z 27008KT 13/10 A2984 RMK A01 T01250103  RH  087%=      5-min Rain = 0
KES1 251230Z 28008KT 13/10 A2984 RMK A01 T01250103  RH  086%=      5-min Rain = 0
KES1 251231Z 27007KT 13/10 A2984 RMK A01 T01250103  RH  086%=      5-min Rain = 0
KES1 251232Z 28007KT 13/10 A2984 RMK A01 T01260103  RH  086%=      5-min Rain = 0
KES1 251233Z 27007KT 13/10 A2984 RMK A01 T01260103  RH  086%=      5-min Rain = 0
KES1 251234Z 27008KT 13/10 A2984 RMK A01 T01260103  RH  086%=      5-min Rain = 0
KES1 251235Z 27007KT 13/10 A2984 RMK A01 T01260102  RH  085%=      5-min Rain = 0
KES1 251236Z 27007KT 13/10 A2984 RMK A01 T01270102  RH  085%=      5-min Rain = 0
KES1 251237Z 28006KT 13/10 A2985 RMK A01 T01270103  RH  085%=      5-min Rain = 0
KES1 251238Z 28007KT 13/10 A2985 RMK A01 T01270103  RH  085%=      5-min Rain = 0
KES1 251239Z 28007KT 13/10 A2985 RMK A01 T01270103  RH  085%=      5-min Rain = 0
KES1 251240Z 28008KT 13/10 A2985 RMK A01 T01270104  RH  086%=      5-min Rain = 0
KES1 251241Z 28007KT 13/10 A2985 RMK A01 T01280104  RH  085%=      5-min Rain = 0
KES1 251242Z 28007KT 13/10 A2985 RMK A01 T01280103  RH  085%=      5-min Rain = 0
KES1 251243Z 28006KT 13/10 A2985 RMK A01 T01280103  RH  085%=      5-min Rain = 0
KES1 251244Z 29005KT 13/10 A2985 RMK A01 T01280104  RH  085%=      5-min Rain = 0
KES1 251245Z 28004KT 13/10 A2986 RMK A01 T01290104  RH  085%=      5-min Rain = 0
KES1 251246Z 28004KT 13/10 A2986 RMK A01 T01290104  RH  085%=      5-min Rain = 0
KES1 251247Z 28004KT 13/10 A2986 RMK A01 T01290104  RH  085%=      5-min Rain = 0
KES1 251248Z 27004KT 13/11 A2986 RMK A01 T01300105  RH  085%=      5-min Rain = 0
KES1 251249Z 27003KT 13/10 A2986 RMK A01 T01300104  RH  085%=      5-min Rain = 0
KES1 251250Z 28002KT 13/10 A2986 RMK A01 T01300104  RH  084%=      5-min Rain = 0
KES1 251251Z 28003KT 13/10 A2986 RMK A01 T01310104  RH  084%=      5-min Rain = 0
KES1 251252Z 28003KT 13/10 A2986 RMK A01 T01310103  RH  083%=      5-min Rain = 0
KES1 251253Z 27002KT 13/10 A2986 RMK A01 T01320103  RH  083%=      5-min Rain = 0
KES1 251254Z 28002KT 13/10 A2986 RMK A01 T01320104  RH  083%=      5-min Rain = 0
KES1 251255Z 27002KT 13/10 A2986 RMK A01 T01330104  RH  083%=      5-min Rain = 0
KES1 251256Z 28002KT 13/10 A2986 RMK A01 T01340104  RH  082%=      5-min Rain = 0
KES1 251257Z 28000KT 13/10 A2986 RMK A01 T01340104  RH  082%=      5-min Rain = 0
KES1 251258Z 28001KT 14/11 A2986 RMK A01 T01350105  RH  082%=      5-min Rain = 0
KES1 251259Z 26001KT 14/11 A2986 RMK A01 T01350106  RH  082%=      5-min Rain = 0
KES1 251300Z 30000KT 14/11 A2986 RMK A01 T01360106  RH  082%=      5-min Rain = 0
KES1 251301Z 30001KT 14/11 A2986 RMK A01 T01370105  RH  081%=      5-min Rain = 0
KES1 251302Z 26001KT 14/11 A2986 RMK A01 T01380106  RH  081%=      5-min Rain = 0
KES1 251303Z 25001KT 14/11 A2986 RMK A01 T01390106  RH  081%=      5-min Rain = 0
KES1 251304Z 26002KT 14/11 A2986 RMK A01 T01390109  RH  082%=      5-min Rain = 0
KES1 251305Z 26001KT 14/11 A2986 RMK A01 T01400108  RH  081%=      5-min Rain = 0
KES1 251306Z 25001KT 14/11 A2986 RMK A01 T01400107  RH  081%=      5-min Rain = 0
KES1 251307Z 25001KT 14/11 A2986 RMK A01 T01400109  RH  081%=      5-min Rain = 0
KES1 251308Z 30001KT 14/11 A2986 RMK A01 T01410107  RH  080%=      5-min Rain = 0
KES1 251309Z 28001KT 14/11 A2986 RMK A01 T01410106  RH  080%=      5-min Rain = 0
KES1 251310Z 31001KT 14/11 A2986 RMK A01 T01410107  RH  080%=      5-min Rain = 0
KES1 251311Z 30001KT 14/11 A2986 RMK A01 T01410107  RH  080%=      5-min Rain = 0
KES1 251312Z 31001KT 14/11 A2986 RMK A01 T01410107  RH  080%=      5-min Rain = 0
KES1 251313Z 32002KT 14/11 A2986 RMK A01 T01410106  RH  079%=      5-min Rain = 0
KES1 251314Z 32003KT 14/11 A2987 RMK A01 T01410108  RH  080%=      5-min Rain = 0
KES1 251315Z 31003KT 14/11 A2987 RMK A01 T01410110  RH  082%=      5-min Rain = 0
KES1 251316Z 31004KT 14/11 A2987 RMK A01 T01410111  RH  082%=      5-min Rain = 0
KES1 251317Z 31004KT 14/11 A2987 RMK A01 T01420112  RH  082%=      5-min Rain = 0
KES1 251318Z 31004KT 14/11 A2987 RMK A01 T01420111  RH  081%=      5-min Rain = 0
KES1 251319Z 31004KT 14/11 A2987 RMK A01 T01420109  RH  081%=      5-min Rain = 0
KES1 251320Z 30003KT 14/11 A2987 RMK A01 T01420110  RH  081%=      5-min Rain = 0
KES1 251321Z 30003KT 14/11 A2987 RMK A01 T01420112  RH  082%=      5-min Rain = 0
KES1 251322Z 30004KT 14/11 A2987 RMK A01 T01420112  RH  082%=      5-min Rain = 0
KES1 251323Z 29005KT 14/11 A2987 RMK A01 T01420110  RH  081%=      5-min Rain = 0
KES1 251324Z 30004KT 14/11 A2987 RMK A01 T01420112  RH  082%=      5-min Rain = 0
KES1 251325Z 30004KT 14/11 A2987 RMK A01 T01430112  RH  082%=      5-min Rain = 0
KES1 251326Z 30004KT 14/11 A2987 RMK A01 T01430110  RH  081%=      5-min Rain = 0
KES1 251327Z 30004KT 14/12 A2987 RMK A01 T01430115  RH  083%=      5-min Rain = 0
KES1 251328Z 30005KT 14/11 A2987 RMK A01 T01430112  RH  081%=      5-min Rain = 0
KES1 251329Z 31004KT 14/11 A2987 RMK A01 T01440112  RH  081%=      5-min Rain = 0
KES1 251330Z 30004KT 15/12 A2987 RMK A01 T01450116  RH  083%=      5-min Rain = 0
KES1 251331Z 29003KT 15/11 A2987 RMK A01 T01450113  RH  081%=      5-min Rain = 0
KES1 251332Z 29002KT 15/12 A2987 RMK A01 T01450116  RH  083%=      5-min Rain = 0
KES1 251333Z 29003KT 15/12 A2987 RMK A01 T01460116  RH  082%=      5-min Rain = 0
KES1 251334Z 29003KT 15/11 A2987 RMK A01 T01460112  RH  080%=      5-min Rain = 0
KES1 251335Z 29003KT 15/12 A2987 RMK A01 T01460115  RH  081%=      5-min Rain = 0
KES1 251336Z 27003KT 15/11 A2987 RMK A01 T01470114  RH  081%=      5-min Rain = 0
KES1 251337Z 27004KT 15/11 A2987 RMK A01 T01470113  RH  080%=      5-min Rain = 0
KES1 251338Z 28004KT 15/11 A2987 RMK A01 T01480114  RH  080%=      5-min Rain = 0
KES1 251339Z 26005KT 15/12 A2987 RMK A01 T01480116  RH  081%=      5-min Rain = 0
KES1 251340Z 27005KT 15/12 A2987 RMK A01 T01490116  RH  081%=      5-min Rain = 0
KES1 251341Z 27005KT 15/12 A2987 RMK A01 T01500115  RH  079%=      5-min Rain = 0
KES1 251342Z 27004KT 15/12 A2987 RMK A01 T01500115  RH  080%=      5-min Rain = 0
KES1 251343Z 27005KT 15/11 A2987 RMK A01 T01510114  RH  079%=      5-min Rain = 0
KES1 251344Z 27004KT 15/12 A2988 RMK A01 T01520115  RH  079%=      5-min Rain = 0
KES1 251345Z 29004KT 15/12 A2988 RMK A01 T01530116  RH  079%=      5-min Rain = 0
KES1 251346Z 28003KT 15/12 A2988 RMK A01 T01540118  RH  079%=      5-min Rain = 0
KES1 251347Z 29004KT 16/12 A2988 RMK A01 T01550117  RH  078%=      5-min Rain = 0
KES1 251348Z 30004KT 16/12 A2988 RMK A01 T01570120  RH  079%=      5-min Rain = 0
KES1 251349Z 30005KT 16/12 A2988 RMK A01 T01580123  RH  079%=      5-min Rain = 0
KES1 251350Z 30006KT 16/12 A2988 RMK A01 T01590120  RH  078%=      5-min Rain = 0
KES1 251351Z 29007KT 16/12 A2988 RMK A01 T01590117  RH  076%=      5-min Rain = 0
KES1 251352Z 30007KT 16/12 A2988 RMK A01 T01590117  RH  076%=      5-min Rain = 0
KES1 251353Z 29008KT 16/12 A2988 RMK A01 T01590118  RH  077%=      5-min Rain = 0
KES1 251354Z 30008KT 16/12 A2988 RMK A01 T01590120  RH  078%=      5-min Rain = 0
KES1 251355Z 30009KT 16/12 A2988 RMK A01 T01590119  RH  078%=      5-min Rain = 0
KES1 251356Z 30009KT 16/12 A2988 RMK A01 T01590118  RH  077%=      5-min Rain = 0
KES1 251357Z 30008KT 16/12 A2988 RMK A01 T01590121  RH  078%=      5-min Rain = 0
KES1 251358Z 29009KT 16/12 A2988 RMK A01 T01590118  RH  076%=      5-min Rain = 0
KES1 251359Z 29009KT 16/12 A2988 RMK A01 T01600117  RH  076%=      5-min Rain = 0
KES1 251400Z 30008KT 16/12 A2988 RMK A01 T01600117  RH  076%=      5-min Rain = 0
KES1 251401Z 31008KT 16/12 A2988 RMK A01 T01600120  RH  077%=      5-min Rain = 0
KES1 251402Z 29008KT 16/12 A2988 RMK A01 T01610120  RH  077%=      5-min Rain = 0
KES1 251403Z 30010KT 16/12 A2988 RMK A01 T01620117  RH  075%=      5-min Rain = 0
KES1 251404Z 30010KT 16/12 A2988 RMK A01 T01620118  RH  075%=      5-min Rain = 0
KES1 251405Z 30009KT 16/12 A2988 RMK A01 T01620118  RH  075%=      5-min Rain = 0
KES1 251406Z 30008KT 16/12 A2988 RMK A01 T01630119  RH  075%=      5-min Rain = 0
KES1 251407Z 30007KT 16/12 A2988 RMK A01 T01630121  RH  076%=      5-min Rain = 0
KES1 251408Z 29007KT 16/12 A2988 RMK A01 T01640122  RH  076%=      5-min Rain = 0
KES1 251409Z 29008KT 17/12 A2988 RMK A01 T01650122  RH  076%=      5-min Rain = 0
KES1 251410Z 29009KT 17/12 A2988 RMK A01 T01660119  RH  073%=      5-min Rain = 0
KES1 251411Z 30008KT 17/12 A2988 RMK A01 T01660117  RH  073%=      5-min Rain = 0
KES1 251412Z 29009KT 17/12 A2988 RMK A01 T01660119  RH  074%=      5-min Rain = 0
KES1 251413Z 30009KT 17/12 A2988 RMK A01 T01660117  RH  073%=      5-min Rain = 0
KES1 251414Z 30009KT 17/12 A2988 RMK A01 T01660120  RH  074%=      5-min Rain = 0
KES1 251415Z 30009KT 17/12 A2988 RMK A01 T01670118  RH  073%=      5-min Rain = 0
KES1 251416Z 30010KT 17/12 A2988 RMK A01 T01670118  RH  073%=      5-min Rain = 0
KES1 251417Z 30010KT 17/12 A2988 RMK A01 T01670122  RH  075%=      5-min Rain = 0
KES1 251418Z 30010KT 17/12 A2988 RMK A01 T01680120  RH  074%=      5-min Rain = 0
KES1 251419Z 30009KT 17/12 A2988 RMK A01 T01680121  RH  074%=      5-min Rain = 0
KES1 251420Z 29009KT 17/12 A2988 RMK A01 T01690120  RH  073%=      5-min Rain = 0
KES1 251421Z 30009KT 17/12 A2988 RMK A01 T01690121  RH  073%=      5-min Rain = 0
KES1 251422Z 29007KT 17/12 A2988 RMK A01 T01690119  RH  072%=      5-min Rain = 0
KES1 251423Z 30007KT 17/12 A2988 RMK A01 T01710122  RH  073%=      5-min Rain = 0
KES1 251424Z 30006KT 17/13 A2988 RMK A01 T01720126  RH  075%=      5-min Rain = 0
KES1 251425Z 29006KT 17/13 A2988 RMK A01 T01730130  RH  076%=      5-min Rain = 0
KES1 251426Z 31006KT 17/13 A2988 RMK A01 T01740128  RH  074%=      5-min Rain = 0
KES1 251427Z 31007KT 18/13 A2989 RMK A01 T01750130  RH  075%=      5-min Rain = 0
KES1 251428Z 30008KT 18/13 A2989 RMK A01 T01760129  RH  074%=      5-min Rain = 0
KES1 251429Z 31008KT 18/13 A2989 RMK A01 T01770125  RH  072%=      5-min Rain = 0
KES1 251430Z 30007KT 18/13 A2989 RMK A01 T01770132  RH  075%=      5-min Rain = 0
KES1 251431Z 31009KT 18/13 A2989 RMK A01 T01790132  RH  074%=      5-min Rain = 0
KES1 251432Z 30009KT 18/13 A2989 RMK A01 T01790128  RH  072%=      5-min Rain = 0
KES1 251433Z 29009KT 18/12 A2989 RMK A01 T01800124  RH  070%=      5-min Rain = 0
KES1 251434Z 29009KT 18/12 A2989 RMK A01 T01790123  RH  069%=      5-min Rain = 0
KES1 251435Z 29009KT 18/12 A2989 RMK A01 T01780123  RH  070%=      5-min Rain = 0
KES1 251436Z 29008KT 18/12 A2989 RMK A01 T01780124  RH  071%=      5-min Rain = 0
KES1 251437Z 29009KT 18/12 A2988 RMK A01 T01780123  RH  070%=      5-min Rain = 0
KES1 251438Z 29009KT 18/12 A2988 RMK A01 T01780120  RH  069%=      5-min Rain = 0
KES1 251439Z 29009KT 18/12 A2988 RMK A01 T01780121  RH  069%=      5-min Rain = 0
KES1 251440Z 29009KT 18/12 A2988 RMK A01 T01790122  RH  069%=      5-min Rain = 0
KES1 251441Z 29009KT 18/12 A2989 RMK A01 T01800123  RH  069%=      5-min Rain = 0
KES1 251442Z 29009KT 18/12 A2989 RMK A01 T01810122  RH  068%=      5-min Rain = 0
KES1 251443Z 29008KT 18/12 A2989 RMK A01 T01820121  RH  067%=      5-min Rain = 0
KES1 251444Z 29007KT 18/12 A2989 RMK A01 T01830121  RH  067%=      5-min Rain = 0
KES1 251445Z 29007KT 18/12 A2989 RMK A01 T01840120  RH  066%=      5-min Rain = 0
KES1 251446Z 28008KT 18/12 A2989 RMK A01 T01840124  RH  068%=      5-min Rain = 0
KES1 251447Z 29009KT 19/12 A2989 RMK A01 T01850121  RH  066%=      5-min Rain = 0
KES1 251448Z 30008KT 19/12 A2989 RMK A01 T01860123  RH  067%=      5-min Rain = 0
KES1 251449Z 30009KT 19/12 A2989 RMK A01 T01860120  RH  065%=      5-min Rain = 0
KES1 251450Z 30010KT 19/12 A2989 RMK A01 T01860124  RH  067%=      5-min Rain = 0
KES1 251451Z 29009KT 19/12 A2989 RMK A01 T01860121  RH  066%=      5-min Rain = 0
KES1 251452Z 29008KT 19/12 A2989 RMK A01 T01870121  RH  066%=      5-min Rain = 0
KES1 251453Z 30007KT 19/13 A2989 RMK A01 T01870125  RH  067%=      5-min Rain = 0
KES1 251454Z 30009KT 19/13 A2989 RMK A01 T01880130  RH  069%=      5-min Rain = 0
KES1 251455Z 30010KT 19/13 A2989 RMK A01 T01890127  RH  067%=      5-min Rain = 0
KES1 251456Z 29010KT 19/13 A2989 RMK A01 T01890125  RH  066%=      5-min Rain = 0
KES1 251457Z 30010KT 19/12 A2989 RMK A01 T01890123  RH  066%=      5-min Rain = 0
KES1 251458Z 29010KT 19/12 A2989 RMK A01 T01890120  RH  064%=      5-min Rain = 0
KES1 251459Z 30009KT 19/12 A2989 RMK A01 T01900122  RH  065%=      5-min Rain = 0
KES1 251500Z 30009KT 19/12 A2989 RMK A01 T01900122  RH  065%=      5-min Rain = 0
KES1 251501Z 29007KT 19/13 A2989 RMK A01 T01900128  RH  067%=      5-min Rain = 0
KES1 251502Z 29007KT 19/13 A2989 RMK A01 T01910128  RH  067%=      5-min Rain = 0
KES1 251503Z 30008KT 19/13 A2989 RMK A01 T01920130  RH  067%=      5-min Rain = 0
KES1 251504Z 30008KT 19/13 A2989 RMK A01 T01940129  RH  066%=      5-min Rain = 0
KES1 251505Z 29007KT 19/13 A2989 RMK A01 T01940128  RH  066%=      5-min Rain = 0
KES1 251506Z 28005KT 19/13 A2989 RMK A01 T01940129  RH  066%=      5-min Rain = 0
KES1 251507Z 28005KT 19/13 A2989 RMK A01 T01940130  RH  066%=      5-min Rain = 0
KES1 251508Z 28005KT 20/13 A2989 RMK A01 T01960130  RH  066%=      5-min Rain = 0
KES1 251509Z 27006KT 20/13 A2989 RMK A01 T01970127  RH  064%=      5-min Rain = 0
KES1 251510Z 27005KT 20/13 A2989 RMK A01 T01970130  RH  065%=      5-min Rain = 0
KES1 251511Z 27006KT 20/13 A2989 RMK A01 T01980128  RH  064%=      5-min Rain = 0
KES1 251512Z 27006KT 20/13 A2989 RMK A01 T01980127  RH  064%=      5-min Rain = 0
KES1 251513Z 28004KT 20/13 A2989 RMK A01 T01980128  RH  064%=      5-min Rain = 0
KES1 251514Z 28005KT 20/13 A2989 RMK A01 T01980132  RH  065%=      5-min Rain = 0
KES1 251515Z 27006KT 20/13 A2989 RMK A01 T02000132  RH  065%=      5-min Rain = 0
KES1 251516Z 27006KT 20/13 A2989 RMK A01 T02000129  RH  063%=      5-min Rain = 0
KES1 251517Z 28006KT 20/13 A2989 RMK A01 T02000127  RH  063%=      5-min Rain = 0
KES1 251518Z 27006KT 20/13 A2989 RMK A01 T02000127  RH  063%=      5-min Rain = 0
KES1 251519Z 28005KT 20/13 A2989 RMK A01 T02000126  RH  062%=      5-min Rain = 0
KES1 251520Z 29005KT 20/13 A2989 RMK A01 T02010133  RH  065%=      5-min Rain = 0
KES1 251521Z 29006KT 20/13 A2989 RMK A01 T02020133  RH  065%=      5-min Rain = 0
KES1 251522Z 30006KT 20/13 A2989 RMK A01 T02020126  RH  062%=      5-min Rain = 0
KES1 251523Z 31006KT 20/13 A2989 RMK A01 T02020130  RH  063%=      5-min Rain = 0
KES1 251524Z 30006KT 20/14 A2989 RMK A01 T02030135  RH  065%=      5-min Rain = 0
KES1 251525Z 31006KT 20/13 A2989 RMK A01 T02040130  RH  063%=      5-min Rain = 0
KES1 251526Z 30005KT 20/14 A2989 RMK A01 T02040135  RH  064%=      5-min Rain = 0
KES1 251527Z 28005KT 21/14 A2989 RMK A01 T02050137  RH  065%=      5-min Rain = 0
KES1 251528Z 28006KT 21/13 A2989 RMK A01 T02060125  RH  060%=      5-min Rain = 0
KES1 251529Z 28005KT 21/13 A2989 RMK A01 T02060128  RH  061%=      5-min Rain = 0
KES1 251530Z 29005KT 21/13 A299 RMK A01 T02060128  RH  061%=      5-min Rain = 0
KES1 251531Z 30004KT 21/13 A299 RMK A01 T02060130  RH  062%=      5-min Rain = 0
KES1 251532Z 31006KT 21/14 A299 RMK A01 T02060142  RH  067%=      5-min Rain = 0
KES1 251533Z 28004KT 21/14 A299 RMK A01 T02070137  RH  064%=      5-min Rain = 0
KES1 251534Z 31006KT 21/14 A299 RMK A01 T02080136  RH  063%=      5-min Rain = 0
KES1 251535Z 31006KT 21/13 A299 RMK A01 T02090129  RH  060%=      5-min Rain = 0
KES1 251536Z 31005KT 21/13 A299 RMK A01 T02090134  RH  062%=      5-min Rain = 0
KES1 251537Z 31005KT 21/14 A299 RMK A01 T02100139  RH  064%=      5-min Rain = 0
KES1 251538Z 28005KT 21/14 A299 RMK A01 T02110135  RH  062%=      5-min Rain = 0
KES1 251539Z 28004KT 21/13 A299 RMK A01 T02110128  RH  059%=      5-min Rain = 0
KES1 251540Z 28005KT 21/13 A299 RMK A01 T02100129  RH  059%=      5-min Rain = 0
KES1 251541Z 27005KT 21/13 A299 RMK A01 T02100131  RH  061%=      5-min Rain = 0
KES1 251542Z 28004KT 21/13 A299 RMK A01 T02100132  RH  061%=      5-min Rain = 0
KES1 251543Z 29005KT 21/13 A299 RMK A01 T02110133  RH  061%=      5-min Rain = 0
KES1 251544Z 30004KT 21/13 A299 RMK A01 T02110133  RH  061%=      5-min Rain = 0
KES1 251545Z 31005KT 21/14 A299 RMK A01 T02120136  RH  062%=      5-min Rain = 0
KES1 251546Z 29006KT 21/14 A299 RMK A01 T02130135  RH  061%=      5-min Rain = 0
KES1 251547Z 31006KT 21/14 A299 RMK A01 T02130136  RH  062%=      5-min Rain = 0
KES1 251548Z 31005KT 21/14 A299 RMK A01 T02140136  RH  061%=      5-min Rain = 0
KES1 251549Z 32006KT 22/14 A299 RMK A01 T02150136  RH  061%=      5-min Rain = 0
KES1 251550Z 32007KT 22/13 A299 RMK A01 T02150134  RH  060%=      5-min Rain = 0
KES1 251551Z 32007KT 22/13 A299 RMK A01 T02150129  RH  058%=      5-min Rain = 0
KES1 251552Z 31007KT 22/13 A299 RMK A01 T02150130  RH  058%=      5-min Rain = 0
KES1 251553Z 30005KT 22/14 A299 RMK A01 T02160136  RH  060%=      5-min Rain = 0
KES1 251554Z 31005KT 22/14 A299 RMK A01 T02170135  RH  060%=      5-min Rain = 0
KES1 251555Z 30006KT 22/14 A299 RMK A01 T02170137  RH  060%=      5-min Rain = 0
KES1 251556Z 28004KT 22/13 A299 RMK A01 T02180129  RH  057%=      5-min Rain = 0
KES1 251557Z 27004KT 22/13 A299 RMK A01 T02180127  RH  056%=      5-min Rain = 0
KES1 251558Z 31004KT 22/13 A299 RMK A01 T02190128  RH  056%=      5-min Rain = 0
KES1 251559Z 31005KT 22/14 A299 RMK A01 T02190140  RH  061%=      5-min Rain = 0
KES1 251600Z 31006KT 22/14 A299 RMK A01 T02200140  RH  060%=      5-min Rain = 0
KES1 251601Z 32006KT 22/14 A299 RMK A01 T02220138  RH  059%=      5-min Rain = 0
KES1 251602Z 32006KT 22/13 A2991 RMK A01 T02230133  RH  057%=      5-min Rain = 0
KES1 251603Z 32005KT 22/13 A2991 RMK A01 T02230129  RH  055%=      5-min Rain = 0
KES1 251604Z 32005KT 22/14 A2991 RMK A01 T02230141  RH  060%=      5-min Rain = 0
KES1 251605Z 32005KT 22/15 A2991 RMK A01 T02240146  RH  061%=      5-min Rain = 0
KES1 251606Z 32007KT 23/14 A2991 RMK A01 T02260139  RH  058%=      5-min Rain = 0
KES1 251607Z 31005KT 23/13 A2991 RMK A01 T02270134  RH  056%=      5-min Rain = 0
KES1 251608Z 31005KT 23/13 A2991 RMK A01 T02270133  RH  055%=      5-min Rain = 0
KES1 251609Z 33003KT 23/13 A2991 RMK A01 T02260132  RH  055%=      5-min Rain = 0
KES1 251610Z 33003KT 23/14 A2991 RMK A01 T02260139  RH  058%=      5-min Rain = 0
KES1 251611Z 32002KT 23/13 A2991 RMK A01 T02270130  RH  054%=      5-min Rain = 0
KES1 251612Z 30003KT 23/14 A2991 RMK A01 T02260135  RH  056%=      5-min Rain = 0
KES1 251613Z 31005KT 23/14 A2991 RMK A01 T02270142  RH  059%=      5-min Rain = 0
KES1 251614Z 30004KT 23/13 A2991 RMK A01 T02290132  RH  054%=      5-min Rain = 0
KES1 251615Z 31003KT 23/13 A2991 RMK A01 T02300129  RH  053%=      5-min Rain = 0
KES1 251616Z 31003KT 23/14 A2991 RMK A01 T02300137  RH  056%=      5-min Rain = 0
KES1 251617Z 32005KT 23/14 A2991 RMK A01 T02320139  RH  056%=      5-min Rain = 0
KES1 251618Z 32004KT 23/12 A2991 RMK A01 T02320122  RH  050%=      5-min Rain = 0
KES1 251619Z 31004KT 23/13 A2991 RMK A01 T02330132  RH  053%=      5-min Rain = 0
KES1 251620Z 30003KT 23/12 A2991 RMK A01 T02330122  RH  050%=      5-min Rain = 0
KES1 251621Z 32003KT 23/13 A2991 RMK A01 T02330129  RH  052%=      5-min Rain = 0
KES1 251622Z 31002KT 23/13 A2991 RMK A01 T02330126  RH  051%=      5-min Rain = 0
KES1 251623Z 32004KT 23/12 A2991 RMK A01 T02330123  RH  050%=      5-min Rain = 0
KES1 251624Z 32004KT 23/12 A2991 RMK A01 T02330120  RH  049%=      5-min Rain = 0
KES1 251625Z 33002KT 23/12 A2991 RMK A01 T02330118  RH  048%=      5-min Rain = 0
KES1 251626Z 31002KT 23/12 A2991 RMK A01 T02330122  RH  050%=      5-min Rain = 0
KES1 251627Z 32002KT 23/12 A2991 RMK A01 T02340121  RH  049%=      5-min Rain = 0
KES1 251628Z 28002KT 24/13 A2991 RMK A01 T02350127  RH  051%=      5-min Rain = 0
KES1 251629Z 34002KT 24/13 A2991 RMK A01 T02350130  RH  052%=      5-min Rain = 0
KES1 251630Z 32004KT 24/13 A2991 RMK A01 T02370125  RH  049%=      5-min Rain = 0
KES1 251631Z 32005KT 24/12 A2991 RMK A01 T02370121  RH  048%=      5-min Rain = 0
KES1 251632Z 32004KT 24/11 A2991 RMK A01 T02380114  RH  046%=      5-min Rain = 0
KES1 251633Z 31002KT 24/11 A2991 RMK A01 T02380114  RH  046%=      5-min Rain = 0
KES1 251634Z 26000KT 24/11 A2991 RMK A01 T02380113  RH  045%=      5-min Rain = 0
KES1 251635Z 00000KT 24/12 A2991 RMK A01 T02380120  RH  047%=      5-min Rain = 0
KES1 251636Z 00000KT 24/11 A2991 RMK A01 T02400113  RH  045%=      5-min Rain = 0
KES1 251637Z 36002KT 24/12 A2991 RMK A01 T02400120  RH  047%=      5-min Rain = 0
KES1 251638Z 01002KT 24/11 A2991 RMK A01 T02410107  RH  043%=      5-min Rain = 0
KES1 251639Z 35002KT 24/10 A2991 RMK A01 T02410099  RH  041%=      5-min Rain = 0
KES1 251640Z 33001KT 24/11 A2991 RMK A01 T02410107  RH  043%=      5-min Rain = 0
KES1 251641Z 01002KT 24/12 A2991 RMK A01 T02420116  RH  045%=      5-min Rain = 0
KES1 251642Z 05002KT 24/11 A2991 RMK A01 T02430111  RH  043%=      5-min Rain = 0
KES1 251643Z 06001KT 24/10 A2991 RMK A01 T02440103  RH  041%=      5-min Rain = 0
KES1 251644Z 03003KT 25/12 A2991 RMK A01 T02450116  RH  045%=      5-min Rain = 0
KES1 251645Z 02003KT 25/12 A2991 RMK A01 T02460117  RH  044%=      5-min Rain = 0
KES1 251646Z 08004KT 25/12 A2991 RMK A01 T02460117  RH  044%=      5-min Rain = 0
KES1 251647Z 01003KT 25/12 A2991 RMK A01 T02470116  RH  044%=      5-min Rain = 0
KES1 251648Z 35004KT 25/12 A2991 RMK A01 T02470115  RH  044%=      5-min Rain = 0
KES1 251649Z 34004KT 25/12 A2991 RMK A01 T02460118  RH  045%=      5-min Rain = 0
KES1 251650Z 36002KT 25/11 A2991 RMK A01 T02450110  RH  043%=      5-min Rain = 0
KES1 251651Z 35003KT 24/11 A2992 RMK A01 T02440109  RH  043%=      5-min Rain = 0
KES1 251652Z 01005KT 24/11 A2992 RMK A01 T02440105  RH  042%=      5-min Rain = 0
KES1 251653Z 05005KT 25/09 A2992 RMK A01 T02450093  RH  038%=      5-min Rain = 0
KES1 251654Z 06004KT 25/09 A2992 RMK A01 T02470086  RH  036%=      5-min Rain = 0
KES1 251655Z 01004KT 25/10 A2992 RMK A01 T02480102  RH  040%=      5-min Rain = 0
KES1 251656Z 35004KT 25/10 A2992 RMK A01 T02500104  RH  040%=      5-min Rain = 0
KES1 251657Z 00006KT 25/11 A2992 RMK A01 T02500110  RH  042%=      5-min Rain = 0
KES1 251658Z 01005KT 25/11 A2992 RMK A01 T02480109  RH  042%=      5-min Rain = 0
KES1 251659Z 02005KT 25/10 A2992 RMK A01 T02480102  RH  040%=      5-min Rain = 0
KES1 251700Z 01004KT 25/09 A2992 RMK A01 T02480094  RH  038%=      5-min Rain = 0
KES1 251701Z 01003KT 25/10 A2992 RMK A01 T02480101  RH  040%=      5-min Rain = 0
KES1 251702Z 36004KT 25/12 A2992 RMK A01 T02480115  RH  043%=      5-min Rain = 0
KES1 251703Z 03006KT 25/10 A2992 RMK A01 T02490096  RH  038%=      5-min Rain = 0
KES1 251704Z 02005KT 25/09 A2992 RMK A01 T02500089  RH  036%=      5-min Rain = 0
KES1 251705Z 01003KT 25/11 A2992 RMK A01 T02500106  RH  040%=      5-min Rain = 0
KES1 251706Z 06006KT 25/11 A2992 RMK A01 T02500111  RH  042%=      5-min Rain = 0
KES1 251707Z 07006KT 25/09 A2992 RMK A01 T02530094  RH  036%=      5-min Rain = 0
KES1 251708Z 07006KT 26/10 A2992 RMK A01 T02550097  RH  037%=      5-min Rain = 0
KES1 251709Z 07005KT 26/09 A2992 RMK A01 T02550092  RH  035%=      5-min Rain = 0
KES1 251710Z 07004KT 25/09 A2992 RMK A01 T02540093  RH  036%=      5-min Rain = 0
KES1 251711Z 02003KT 26/11 A2992 RMK A01 T02550112  RH  041%=      5-min Rain = 0
KES1 251712Z 34004KT 26/11 A2992 RMK A01 T02550105  RH  039%=      5-min Rain = 0
KES1 251713Z 34005KT 25/11 A2992 RMK A01 T02530105  RH  039%=      5-min Rain = 0
KES1 251714Z 36007KT 25/11 A2992 RMK A01 T02520111  RH  041%=      5-min Rain = 0
KES1 251715Z 36005KT 25/10 A2992 RMK A01 T02510103  RH  039%=      5-min Rain = 0
KES1 251716Z 01005KT 25/11 A2992 RMK A01 T02500105  RH  040%=      5-min Rain = 0
KES1 251717Z 02006KT 25/12 A2992 RMK A01 T02490115  RH  043%=      5-min Rain = 0
KES1 251718Z 02006KT 25/11 A2992 RMK A01 T02510108  RH  041%=      5-min Rain = 0
KES1 251719Z 03005KT 25/11 A2992 RMK A01 T02510107  RH  040%=      5-min Rain = 0
KES1 251720Z 02004KT 25/11 A2992 RMK A01 T02510105  RH  040%=      5-min Rain = 0
KES1 251721Z 36005KT 25/13 A2992 RMK A01 T02510126  RH  046%=      5-min Rain = 0
KES1 251722Z 01006KT 25/13 A2992 RMK A01 T02520132  RH  048%=      5-min Rain = 0
KES1 251723Z 02006KT 25/11 A2992 RMK A01 T02530108  RH  040%=      5-min Rain = 0
KES1 251724Z 04003KT 25/11 A2992 RMK A01 T02530114  RH  042%=      5-min Rain = 0
KES1 251725Z 04003KT 25/12 A2993 RMK A01 T02530123  RH  044%=      5-min Rain = 0
KES1 251726Z 04002KT 25/13 A2993 RMK A01 T02540126  RH  045%=      5-min Rain = 0
KES1 251727Z 04003KT 26/12 A2993 RMK A01 T02550122  RH  043%=      5-min Rain = 0
KES1 251728Z 08004KT 26/12 A2993 RMK A01 T02570115  RH  041%=      5-min Rain = 0
KES1 251729Z 08004KT 26/11 A2993 RMK A01 T02560114  RH  041%=      5-min Rain = 0
KES1 251730Z 31004KT 26/13 A2993 RMK A01 T02570133  RH  046%=      5-min Rain = 0
KES1 251731Z 33004KT 26/13 A2993 RMK A01 T02590130  RH  045%=      5-min Rain = 0
KES1 251732Z 00004KT 26/14 A2993 RMK A01 T02590137  RH  047%=      5-min Rain = 0
KES1 251733Z 02007KT 26/13 A2993 RMK A01 T02600126  RH  043%=      5-min Rain = 0
KES1 251734Z 03006KT 26/12 A2993 RMK A01 T02580116  RH  041%=      5-min Rain = 0
KES1 251735Z 03005KT 26/12 A2993 RMK A01 T02570119  RH  042%=      5-min Rain = 0
KES1 251736Z 01005KT 26/12 A2993 RMK A01 T02570117  RH  042%=      5-min Rain = 0
KES1 251737Z 00004KT 26/12 A2993 RMK A01 T02560116  RH  042%=      5-min Rain = 0
KES1 251738Z 00003KT 26/12 A2993 RMK A01 T02550120  RH  043%=      5-min Rain = 0
KES1 251739Z 32003KT 25/12 A2993 RMK A01 T02540119  RH  043%=      5-min Rain = 0
KES1 251740Z 32004KT 25/12 A2993 RMK A01 T02540117  RH  043%=      5-min Rain = 0
KES1 251741Z 30002KT 25/11 A2993 RMK A01 T02540105  RH  039%=      5-min Rain = 0
KES1 251742Z 29001KT 25/11 A2993 RMK A01 T02530110  RH  041%=      5-min Rain = 0
KES1 251743Z 31002KT 25/12 A2993 RMK A01 T02530116  RH  042%=      5-min Rain = 0
KES1 251744Z 32003KT 25/12 A2993 RMK A01 T02540116  RH  042%=      5-min Rain = 0
KES1 251745Z 32005KT 26/12 A2993 RMK A01 T02550124  RH  044%=      5-min Rain = 0
KES1 251746Z 31005KT 26/12 A2993 RMK A01 T02570122  RH  043%=      5-min Rain = 0
KES1 251747Z 31006KT 26/14 A2993 RMK A01 T02590135  RH  046%=      5-min Rain = 0
KES1 251748Z 30007KT 26/14 A2993 RMK A01 T02610139  RH  047%=      5-min Rain = 0
KES1 251749Z 31008KT 26/14 A2993 RMK A01 T02630135  RH  045%=      5-min Rain = 0
KES1 251750Z 33007KT 26/12 A2993 RMK A01 T02630122  RH  042%=      5-min Rain = 0
KES1 251751Z 34004KT 26/11 A2993 RMK A01 T02610109  RH  038%=      5-min Rain = 0
KES1 251752Z 31001KT 26/10 A2993 RMK A01 T02570102  RH  038%=      5-min Rain = 0
KES1 251753Z 22001KT 26/11 A2993 RMK A01 T02550106  RH  039%=      5-min Rain = 0
KES1 251754Z 24001KT 26/11 A2993 RMK A01 T02550112  RH  041%=      5-min Rain = 0
KES1 251755Z 25001KT 26/12 A2992 RMK A01 T02560117  RH  042%=      5-min Rain = 0
KES1 251756Z 28001KT 26/12 A2992 RMK A01 T02570117  RH  042%=      5-min Rain = 0
KES1 251757Z 34001KT 26/12 A2993 RMK A01 T02590118  RH  041%=      5-min Rain = 0
KES1 251758Z 35001KT 26/12 A2992 RMK A01 T02590121  RH  042%=      5-min Rain = 0
KES1 251759Z 09000KT 26/12 A2992 RMK A01 T02600119  RH  042%=      5-min Rain = 0
KES1 251800Z 09002KT 26/11 A2992 RMK A01 T02610113  RH  040%=      5-min Rain = 0
KES1 251801Z 04005KT 26/12 A2992 RMK A01 T02620120  RH  041%=      5-min Rain = 0
KES1 251802Z 36006KT 26/12 A2993 RMK A01 T02640122  RH  041%=      5-min Rain = 0
KES1 251803Z 02004KT 26/13 A2993 RMK A01 T02640127  RH  043%=      5-min Rain = 0
KES1 251804Z 06005KT 26/12 A2993 RMK A01 T02630118  RH  040%=      5-min Rain = 0
KES1 251805Z 06005KT 26/11 A2993 RMK A01 T02630113  RH  039%=      5-min Rain = 0
KES1 251806Z 05007KT 26/11 A2993 RMK A01 T02630112  RH  039%=      5-min Rain = 0
KES1 251807Z 03007KT 26/12 A2993 RMK A01 T02640120  RH  041%=      5-min Rain = 0
KES1 251808Z 02005KT 26/12 A2993 RMK A01 T02640115  RH  039%=      5-min Rain = 0
KES1 251809Z 06003KT 26/12 A2993 RMK A01 T02640119  RH  041%=      5-min Rain = 0
KES1 251810Z 08004KT 26/11 A2993 RMK A01 T02640110  RH  038%=      5-min Rain = 0
KES1 251811Z 07003KT 26/10 A2993 RMK A01 T02640104  RH  037%=      5-min Rain = 0
KES1 251812Z 05002KT 26/12 A2993 RMK A01 T02640115  RH  039%=      5-min Rain = 0
KES1 251813Z 03001KT 27/14 A2993 RMK A01 T02650137  RH  045%=      5-min Rain = 0
KES1 251814Z 04003KT 27/12 A2993 RMK A01 T02660123  RH  041%=      5-min Rain = 0
KES1 251815Z 07006KT 27/12 A2993 RMK A01 T02670116  RH  039%=      5-min Rain = 0
KES1 251816Z 08005KT 27/10 A2993 RMK A01 T02670104  RH  036%=      5-min Rain = 0
KES1 251817Z 07003KT 27/11 A2992 RMK A01 T02660109  RH  037%=      5-min Rain = 0
KES1 251818Z 08002KT 27/13 A2992 RMK A01 T02680128  RH  042%=      5-min Rain = 0
KES1 251819Z 06002KT 27/12 A2992 RMK A01 T02700121  RH  039%=      5-min Rain = 0
KES1 251820Z 06004KT 27/12 A2992 RMK A01 T02700115  RH  038%=      5-min Rain = 0
KES1 251821Z 05004KT 27/12 A2992 RMK A01 T02710117  RH  038%=      5-min Rain = 0
KES1 251822Z 06003KT 27/11 A2993 RMK A01 T02710106  RH  036%=      5-min Rain = 0
KES1 251823Z 09005KT 27/12 A2992 RMK A01 T02700115  RH  038%=      5-min Rain = 0
KES1 251824Z 06005KT 27/12 A2992 RMK A01 T02700115  RH  038%=      5-min Rain = 0
KES1 251825Z 04002KT 27/12 A2992 RMK A01 T02710115  RH  038%=      5-min Rain = 0
KES1 251826Z 04004KT 27/12 A2992 RMK A01 T02710119  RH  039%=      5-min Rain = 0
KES1 251827Z 05009KT 27/12 A2992 RMK A01 T02710119  RH  039%=      5-min Rain = 0
KES1 251828Z 06006KT 27/11 A2993 RMK A01 T02720108  RH  036%=      5-min Rain = 0
KES1 251829Z 06006KT 27/11 A2993 RMK A01 T02710109  RH  036%=      5-min Rain = 0
KES1 251830Z 05002KT 27/11 A2993 RMK A01 T02710113  RH  037%=      5-min Rain = 0
KES1 251831Z 33001KT 27/11 A2993 RMK A01 T02710112  RH  037%=      5-min Rain = 0
KES1 251832Z 07001KT 27/11 A2993 RMK A01 T02700107  RH  036%=      5-min Rain = 0
KES1 251833Z 03003KT 27/12 A2993 RMK A01 T02700117  RH  039%=      5-min Rain = 0
KES1 251834Z 01004KT 27/10 A2993 RMK A01 T02700104  RH  035%=      5-min Rain = 0
KES1 251835Z 01005KT 27/12 A2993 RMK A01 T02700115  RH  038%=      5-min Rain = 0
KES1 251836Z 02005KT 27/11 A2993 RMK A01 T02690109  RH  037%=      5-min Rain = 0
KES1 251837Z 01004KT 27/11 A2993 RMK A01 T02690106  RH  036%=      5-min Rain = 0
KES1 251838Z 00002KT 27/10 A2993 RMK A01 T02680099  RH  035%=      5-min Rain = 0
KES1 251839Z 02001KT 27/11 A2993 RMK A01 T02670107  RH  037%=      5-min Rain = 0
KES1 251840Z 09001KT 27/13 A2993 RMK A01 T02680127  RH  042%=      5-min Rain = 0
KES1 251841Z 10003KT 27/12 A2993 RMK A01 T02690116  RH  038%=      5-min Rain = 0
KES1 251842Z 02003KT 27/11 A2993 RMK A01 T02700111  RH  037%=      5-min Rain = 0
KES1 251843Z 05004KT 27/12 A2993 RMK A01 T02700117  RH  039%=      5-min Rain = 0
KES1 251844Z 04005KT 27/11 A2993 RMK A01 T02700113  RH  038%=      5-min Rain = 0
KES1 251845Z 05004KT 27/11 A2993 RMK A01 T02700106  RH  036%=      5-min Rain = 0
KES1 251846Z 07003KT 27/11 A2993 RMK A01 T02700105  RH  036%=      5-min Rain = 0
KES1 251847Z 06003KT 27/10 A2993 RMK A01 T02690099  RH  034%=      5-min Rain = 0
KES1 251848Z 07003KT 27/11 A2993 RMK A01 T02690109  RH  037%=      5-min Rain = 0
KES1 251849Z 05002KT 27/11 A2993 RMK A01 T02700114  RH  038%=      5-min Rain = 0
KES1 251850Z 31004KT 27/11 A2993 RMK A01 T02710110  RH  037%=      5-min Rain = 0
KES1 251851Z 31006KT 27/12 A2993 RMK A01 T02720121  RH  039%=      5-min Rain = 0
KES1 251852Z 31003KT 27/11 A2993 RMK A01 T02730107  RH  035%=      5-min Rain = 0
KES1 251853Z 29002KT 27/09 A2993 RMK A01 T02740092  RH  032%=      5-min Rain = 0
KES1 251854Z 29007KT 27/11 A2993 RMK A01 T02740107  RH  035%=      5-min Rain = 0
KES1 251855Z 29009KT 28/12 A2993 RMK A01 T02750117  RH  038%=      5-min Rain = 0
KES1 251856Z 28009KT 28/11 A2993 RMK A01 T02760110  RH  036%=      5-min Rain = 0
KES1 251857Z 27007KT 28/11 A2993 RMK A01 T02780112  RH  036%=      5-min Rain = 0
KES1 251858Z 25005KT 28/11 A2993 RMK A01 T02780108  RH  035%=      5-min Rain = 0
KES1 251859Z 29003KT 28/11 A2993 RMK A01 T02770114  RH  036%=      5-min Rain = 0
KES1 251900Z 34005KT 28/12 A2993 RMK A01 T02770119  RH  037%=      5-min Rain = 0
KES1 251901Z 32006KT 28/12 A2993 RMK A01 T02780120  RH  038%=      5-min Rain = 0
KES1 251902Z 32003KT 28/12 A2993 RMK A01 T02800124  RH  038%=      5-min Rain = 0
KES1 251903Z 33002KT 28/10 A2993 RMK A01 T02800103  RH  033%=      5-min Rain = 0
KES1 251904Z 35003KT 28/11 A2993 RMK A01 T02780113  RH  036%=      5-min Rain = 0
KES1 251905Z 33003KT 28/11 A2993 RMK A01 T02750105  RH  035%=      5-min Rain = 0
KES1 251906Z 03003KT 27/11 A2993 RMK A01 T02730106  RH  035%=      5-min Rain = 0
KES1 251907Z 32006KT 27/11 A2993 RMK A01 T02720105  RH  035%=      5-min Rain = 0
KES1 251908Z 34007KT 27/11 A2993 RMK A01 T02710114  RH  038%=      5-min Rain = 0
KES1 251909Z 32011KT 27/12 A2993 RMK A01 T02700121  RH  040%=      5-min Rain = 0
KES1 251910Z 30011KT 27/12 A2993 RMK A01 T02680115  RH  039%=      5-min Rain = 0
KES1 251911Z 32013G18KT 27/12 A2993 RMK A01 T02680121  RH  040%=      5-min Rain = 0
KES1 251912Z 34016KT 27/12 A2993 RMK A01 T02690118  RH  039%=      5-min Rain = 0
KES1 251913Z 34015KT 27/13 A2993 RMK A01 T02690125  RH  041%=      5-min Rain = 0
KES1 251914Z 34016KT 27/12 A2993 RMK A01 T02680118  RH  039%=      5-min Rain = 0
KES1 251915Z 34013KT 27/12 A2993 RMK A01 T02680121  RH  040%=      5-min Rain = 0
KES1 251916Z 34015G22KT 27/13 A2993 RMK A01 T02700126  RH  041%=      5-min Rain = 0
KES1 251917Z 34017KT 27/12 A2993 RMK A01 T02720118  RH  038%=      5-min Rain = 0
KES1 251918Z 35018G23KT 27/12 A2994 RMK A01 T02730117  RH  038%=      5-min Rain = 0
KES1 251919Z 34016KT 27/12 A2994 RMK A01 T02720115  RH  038%=      5-min Rain = 0
KES1 251920Z 34017G22KT 27/13 A2994 RMK A01 T02710125  RH  040%=      5-min Rain = 0
KES1 251921Z 34016KT 27/13 A2994 RMK A01 T02730128  RH  041%=      5-min Rain = 0
KES1 251922Z 34015G21KT 27/12 A2994 RMK A01 T02740119  RH  038%=      5-min Rain = 0
KES1 251923Z 34017KT 27/12 A2994 RMK A01 T02730119  RH  038%=      5-min Rain = 0
KES1 251924Z 35014KT 27/13 A2994 RMK A01 T02730126  RH  040%=      5-min Rain = 0
KES1 251925Z 35015KT 27/12 A2994 RMK A01 T02730120  RH  039%=      5-min Rain = 0
KES1 251926Z 34013KT 27/13 A2994 RMK A01 T02740127  RH  040%=      5-min Rain = 0
KES1 251927Z 34017KT 27/12 A2994 RMK A01 T02740123  RH  039%=      5-min Rain = 0
KES1 251928Z 34018KT 28/12 A2994 RMK A01 T02750121  RH  038%=      5-min Rain = 0
KES1 251929Z 35015KT 27/12 A2994 RMK A01 T02730121  RH  039%=      5-min Rain = 0
KES1 251930Z 35019G25KT 27/12 A2994 RMK A01 T02730120  RH  039%=      5-min Rain = 0
KES1 251931Z 34020KT 27/13 A2994 RMK A01 T02730125  RH  040%=      5-min Rain = 0
KES1 251932Z 34018G23KT 27/12 A2994 RMK A01 T02720121  RH  039%=      5-min Rain = 0
KES1 251933Z 33016G21KT 27/13 A2994 RMK A01 T02710128  RH  041%=      5-min Rain = 0
KES1 251934Z 33017G23KT 27/13 A2994 RMK A01 T02720131  RH  042%=      5-min Rain = 0
KES1 251935Z 34020KT 27/12 A2994 RMK A01 T02740124  RH  040%=      5-min Rain = 0
KES1 251936Z 34020KT 27/12 A2994 RMK A01 T02730123  RH  039%=      5-min Rain = 0
KES1 251937Z 35020KT 27/13 A2995 RMK A01 T02720125  RH  040%=      5-min Rain = 0
KES1 251938Z 35016KT 27/12 A2994 RMK A01 T02700118  RH  039%=      5-min Rain = 0
KES1 251939Z 36015KT 27/12 A2995 RMK A01 T02680121  RH  040%=      5-min Rain = 0
KES1 251940Z 34020KT 27/12 A2995 RMK A01 T02690122  RH  040%=      5-min Rain = 0
KES1 251941Z 34023KT 27/12 A2995 RMK A01 T02690117  RH  039%=      5-min Rain = 0
KES1 251942Z 35019G25KT 27/12 A2995 RMK A01 T02660117  RH  039%=      5-min Rain = 0
KES1 251943Z 35019KT 27/12 A2995 RMK A01 T02660118  RH  040%=      5-min Rain = 0
KES1 251944Z 35020KT 27/13 A2995 RMK A01 T02670126  RH  042%=      5-min Rain = 0
KES1 251945Z 34020KT 27/12 A2995 RMK A01 T02670117  RH  039%=      5-min Rain = 0
KES1 251946Z 00018KT 27/12 A2995 RMK A01 T02670123  RH  041%=      5-min Rain = 0
KES1 251947Z 01018G23KT 27/12 A2995 RMK A01 T02680122  RH  040%=      5-min Rain = 0
KES1 251948Z 00020KT 27/12 A2995 RMK A01 T02680118  RH  039%=      5-min Rain = 0
KES1 251949Z 00016G22KT 27/12 A2995 RMK A01 T02660119  RH  040%=      5-min Rain = 0
KES1 251950Z 36019G24KT 27/12 A2996 RMK A01 T02660122  RH  041%=      5-min Rain = 0
KES1 251951Z 36017KT 27/12 A2996 RMK A01 T02670119  RH  040%=      5-min Rain = 0
KES1 251952Z 01017KT 27/12 A2995 RMK A01 T02650116  RH  039%=      5-min Rain = 0
KES1 251953Z 00019KT 27/12 A2995 RMK A01 T02650115  RH  039%=      5-min Rain = 0
KES1 251954Z 00014KT 27/12 A2996 RMK A01 T02650120  RH  040%=      5-min Rain = 0
KES1 251955Z 00015KT 27/13 A2996 RMK A01 T02670127  RH  042%=      5-min Rain = 0
KES1 251956Z 35016KT 27/12 A2996 RMK A01 T02680124  RH  041%=      5-min Rain = 0
KES1 251957Z 34015KT 27/13 A2996 RMK A01 T02680125  RH  041%=      5-min Rain = 0
KES1 251958Z 35018G23KT 27/12 A2996 RMK A01 T02680123  RH  041%=      5-min Rain = 0
KES1 251959Z 34019KT 27/12 A2996 RMK A01 T02680121  RH  040%=      5-min Rain = 0
KES1 252000Z 33020KT 27/12 A2996 RMK A01 T02670120  RH  040%=      5-min Rain = 0
KES1 252001Z 33017KT 27/12 A2996 RMK A01 T02660116  RH  039%=      5-min Rain = 0
KES1 252002Z 35015KT 27/13 A2996 RMK A01 T02660125  RH  042%=      5-min Rain = 0
KES1 252003Z 35021KT 27/12 A2996 RMK A01 T02660120  RH  040%=      5-min Rain = 0
KES1 252004Z 36018KT 27/12 A2996 RMK A01 T02650115  RH  039%=      5-min Rain = 0
KES1 252005Z 00016KT 26/12 A2996 RMK A01 T02630116  RH  040%=      5-min Rain = 0
KES1 252006Z 35017KT 26/12 A2996 RMK A01 T02640123  RH  042%=      5-min Rain = 0
KES1 252007Z 35019KT 26/12 A2996 RMK A01 T02640119  RH  040%=      5-min Rain = 0
KES1 252008Z 35017KT 27/12 A2996 RMK A01 T02650115  RH  039%=      5-min Rain = 0
KES1 252009Z 35015KT 26/12 A2996 RMK A01 T02630121  RH  041%=      5-min Rain = 0
KES1 252010Z 35017KT 26/12 A2997 RMK A01 T02640123  RH  042%=      5-min Rain = 0
KES1 252011Z 35019KT 26/12 A2997 RMK A01 T02640116  RH  040%=      5-min Rain = 0
KES1 252012Z 36018KT 26/12 A2997 RMK A01 T02630121  RH  041%=      5-min Rain = 0
KES1 252013Z 01017KT 26/12 A2997 RMK A01 T02630116  RH  040%=      5-min Rain = 0
KES1 252014Z 35016KT 26/11 A2997 RMK A01 T02620114  RH  039%=      5-min Rain = 0
KES1 252015Z 36015KT 26/11 A2997 RMK A01 T02620113  RH  039%=      5-min Rain = 0
KES1 252016Z 35015KT 26/12 A2997 RMK A01 T02620116  RH  040%=      5-min Rain = 0
KES1 252017Z 34016KT 26/12 A2997 RMK A01 T02620120  RH  041%=      5-min Rain = 0
KES1 252018Z 34019KT 26/12 A2997 RMK A01 T02620116  RH  040%=      5-min Rain = 0
KES1 252019Z 36018KT 26/12 A2997 RMK A01 T02620117  RH  041%=      5-min Rain = 0
KES1 252020Z 35017KT 26/12 A2997 RMK A01 T02610120  RH  041%=      5-min Rain = 0
KES1 252021Z 34019KT 26/12 A2997 RMK A01 T02620118  RH  041%=      5-min Rain = 0
KES1 252022Z 34018KT 26/12 A2997 RMK A01 T02620115  RH  040%=      5-min Rain = 0
KES1 252023Z 35015KT 26/12 A2997 RMK A01 T02620121  RH  041%=      5-min Rain = 0
KES1 252024Z 35017KT 26/12 A2997 RMK A01 T02620117  RH  040%=      5-min Rain = 0
KES1 252025Z 34018G23KT 26/12 A2997 RMK A01 T02620121  RH  042%=      5-min Rain = 0
KES1 252026Z 34017KT 26/12 A2997 RMK A01 T02630121  RH  041%=      5-min Rain = 0
KES1 252027Z 00015KT 26/13 A2997 RMK A01 T02630129  RH  044%=      5-min Rain = 0
KES1 252028Z 00016KT 27/13 A2997 RMK A01 T02650125  RH  042%=      5-min Rain = 0
KES1 252029Z 01019KT 26/12 A2997 RMK A01 T02640116  RH  040%=      5-min Rain = 0
KES1 252030Z 00017KT 26/12 A2997 RMK A01 T02620117  RH  041%=      5-min Rain = 0
KES1 252031Z 36018KT 26/12 A2997 RMK A01 T02610116  RH  040%=      5-min Rain = 0
KES1 252032Z 36016KT 26/12 A2998 RMK A01 T02600117  RH  041%=      5-min Rain = 0
KES1 252033Z 36019KT 26/12 A2998 RMK A01 T02600117  RH  041%=      5-min Rain = 0
KES1 252034Z 36017KT 26/12 A2998 RMK A01 T02610117  RH  041%=      5-min Rain = 0
KES1 252035Z 35015KT 26/12 A2998 RMK A01 T02600118  RH  041%=      5-min Rain = 0
KES1 252036Z 35016KT 26/12 A2998 RMK A01 T02610122  RH  042%=      5-min Rain = 0
KES1 252037Z 00018KT 26/12 A2998 RMK A01 T02610118  RH  041%=      5-min Rain = 0
KES1 252038Z 00018G24KT 26/12 A2998 RMK A01 T02610116  RH  040%=      5-min Rain = 0
KES1 252039Z 00018KT 26/12 A2998 RMK A01 T02610117  RH  041%=      5-min Rain = 0
KES1 252040Z 01018KT 26/11 A2998 RMK A01 T02600113  RH  040%=      5-min Rain = 0
KES1 252041Z 01016KT 26/12 A2998 RMK A01 T02590115  RH  041%=      5-min Rain = 0
KES1 252042Z 01013G19KT 26/11 A2998 RMK A01 T02600114  RH  040%=      5-min Rain = 0
KES1 252043Z 01019G25KT 26/11 A2998 RMK A01 T02610111  RH  039%=      5-min Rain = 0
KES1 252044Z 01017KT 26/11 A2998 RMK A01 T02610109  RH  039%=      5-min Rain = 0
KES1 252045Z 01018KT 26/11 A2998 RMK A01 T02610108  RH  038%=      5-min Rain = 0
KES1 252046Z 01015KT 26/11 A2998 RMK A01 T02600111  RH  039%=      5-min Rain = 0
KES1 252047Z 00015KT 26/11 A2998 RMK A01 T02600109  RH  039%=      5-min Rain = 0
KES1 252048Z 36015KT 26/11 A2998 RMK A01 T02610106  RH  038%=      5-min Rain = 0
KES1 252049Z 35018KT 26/11 A2998 RMK A01 T02600112  RH  040%=      5-min Rain = 0
KES1 252050Z 35015KT 26/11 A2998 RMK A01 T02600111  RH  039%=      5-min Rain = 0
KES1 252051Z 01016KT 26/11 A2998 RMK A01 T02610109  RH  038%=      5-min Rain = 0
KES1 252052Z 36015G21KT 26/12 A2998 RMK A01 T02610115  RH  040%=      5-min Rain = 0
KES1 252053Z 35016KT 26/11 A2998 RMK A01 T02620109  RH  038%=      5-min Rain = 0
KES1 252054Z 35018KT 26/11 A2998 RMK A01 T02620111  RH  039%=      5-min Rain = 0
KES1 252055Z 35016KT 26/11 A2998 RMK A01 T02620112  RH  039%=      5-min Rain = 0
KES1 252056Z 35013KT 26/12 A2998 RMK A01 T02640118  RH  040%=      5-min Rain = 0
KES1 252057Z 35014KT 26/11 A2998 RMK A01 T02640110  RH  038%=      5-min Rain = 0
KES1 252058Z 00013KT 26/12 A2998 RMK A01 T02630116  RH  040%=      5-min Rain = 0
KES1 252059Z 35016KT 26/12 A2998 RMK A01 T02640115  RH  040%=      5-min Rain = 0
KES1 252100Z 35014KT 26/11 A2998 RMK A01 T02640113  RH  039%=      5-min Rain = 0
KES1 252101Z 36013KT 26/12 A2998 RMK A01 T02630116  RH  040%=      5-min Rain = 0
KES1 252102Z 35015KT 26/12 A2998 RMK A01 T02640118  RH  040%=      5-min Rain = 0
KES1 252103Z 00015G21KT 27/12 A2998 RMK A01 T02650118  RH  040%=      5-min Rain = 0
KES1 252104Z 01014KT 27/11 A2998 RMK A01 T02650114  RH  039%=      5-min Rain = 0
KES1 252105Z 01010KT 26/12 A2998 RMK A01 T02640115  RH  039%=      5-min Rain = 0
KES1 252106Z 01013KT 26/11 A2998 RMK A01 T02630114  RH  039%=      5-min Rain = 0
KES1 252107Z 00014KT 26/11 A2998 RMK A01 T02630113  RH  039%=      5-min Rain = 0
KES1 252108Z 35013KT 26/12 A2998 RMK A01 T02640124  RH  042%=      5-min Rain = 0
KES1 252109Z 35013KT 27/11 A2998 RMK A01 T02660112  RH  038%=      5-min Rain = 0
KES1 252110Z 36012KT 26/11 A2998 RMK A01 T02640113  RH  039%=      5-min Rain = 0
KES1 252111Z 01013KT 26/12 A2998 RMK A01 T02630116  RH  040%=      5-min Rain = 0
KES1 252112Z 01013KT 26/12 A2999 RMK A01 T02640116  RH  040%=      5-min Rain = 0
KES1 252113Z 01011KT 26/11 A2999 RMK A01 T02640114  RH  039%=      5-min Rain = 0
KES1 252114Z 35014KT 26/12 A2999 RMK A01 T02640118  RH  040%=      5-min Rain = 0
KES1 252115Z 36012KT 26/11 A2999 RMK A01 T02640113  RH  039%=      5-min Rain = 0
KES1 252116Z 35013KT 27/11 A2999 RMK A01 T02650114  RH  039%=      5-min Rain = 0
KES1 252117Z 01014KT 26/12 A2999 RMK A01 T02640116  RH  040%=      5-min Rain = 0
KES1 252118Z 02015G20KT 26/11 A2999 RMK A01 T02640111  RH  038%=      5-min Rain = 0
KES1 252119Z 01015KT 26/11 A2999 RMK A01 T02630111  RH  039%=      5-min Rain = 0
KES1 252120Z 02013KT 26/11 A2998 RMK A01 T02620110  RH  039%=      5-min Rain = 0
KES1 252121Z 01012KT 26/12 A2998 RMK A01 T02620117  RH  040%=      5-min Rain = 0
KES1 252122Z 01017KT 26/11 A2998 RMK A01 T02630114  RH  039%=      5-min Rain = 0
KES1 252123Z 01018KT 26/11 A2998 RMK A01 T02630113  RH  039%=      5-min Rain = 0
KES1 252124Z 01013KT 26/12 A2999 RMK A01 T02630117  RH  040%=      5-min Rain = 0
KES1 252125Z 01016KT 26/11 A2999 RMK A01 T02630114  RH  039%=      5-min Rain = 0
KES1 252126Z 02013KT 26/11 A2999 RMK A01 T02630114  RH  039%=      5-min Rain = 0
KES1 252127Z 01013KT 26/12 A2999 RMK A01 T02620115  RH  040%=      5-min Rain = 0
KES1 252128Z 36018KT 26/11 A2999 RMK A01 T02620111  RH  039%=      5-min Rain = 0
KES1 252129Z 36016KT 26/11 A2999 RMK A01 T02610110  RH  039%=      5-min Rain = 0
KES1 252130Z 36015KT 26/11 A2999 RMK A01 T02610113  RH  040%=      5-min Rain = 0
KES1 252131Z 35011KT 26/11 A2999 RMK A01 T02610109  RH  039%=      5-min Rain = 0
KES1 252132Z 00012KT 26/11 A2999 RMK A01 T02610113  RH  040%=      5-min Rain = 0
KES1 252133Z 01013KT 26/11 A2999 RMK A01 T02620114  RH  039%=      5-min Rain = 0
KES1 252134Z 00015G20KT 26/12 A2999 RMK A01 T02620117  RH  040%=      5-min Rain = 0
KES1 252135Z 00015KT 26/11 A2999 RMK A01 T02630112  RH  039%=      5-min Rain = 0
KES1 252136Z 01014G19KT 26/12 A2999 RMK A01 T02630115  RH  040%=      5-min Rain = 0
KES1 252137Z 01014G19KT 26/11 A2999 RMK A01 T02620108  RH  038%=      5-min Rain = 0
KES1 252138Z 02014KT 26/11 A2999 RMK A01 T02610108  RH  038%=      5-min Rain = 0
KES1 252139Z 00011KT 26/11 A2999 RMK A01 T02610112  RH  039%=      5-min Rain = 0
KES1 252140Z 00010KT 26/12 A2999 RMK A01 T02610116  RH  040%=      5-min Rain = 0
KES1 252141Z 01012KT 26/11 A2999 RMK A01 T02630114  RH  039%=      5-min Rain = 0
KES1 252142Z 00010KT 26/11 A2999 RMK A01 T02620111  RH  039%=      5-min Rain = 0
KES1 252143Z 01012KT 26/11 A2999 RMK A01 T02620112  RH  039%=      5-min Rain = 0
KES1 252144Z 03011KT 26/11 A2999 RMK A01 T02620111  RH  039%=      5-min Rain = 0
KES1 252145Z 02011KT 26/11 A2999 RMK A01 T02620113  RH  040%=      5-min Rain = 0
KES1 252146Z 02007KT 26/12 A2999 RMK A01 T02620121  RH  041%=      5-min Rain = 0
KES1 252147Z 01011KT 27/12 A2999 RMK A01 T02650120  RH  041%=      5-min Rain = 0
KES1 252148Z 01012KT 27/12 A2999 RMK A01 T02650117  RH  040%=      5-min Rain = 0
KES1 252149Z 01012KT 27/11 A2999 RMK A01 T02650114  RH  039%=      5-min Rain = 0
KES1 252150Z 02009KT 26/11 A2999 RMK A01 T02630114  RH  039%=      5-min Rain = 0
KES1 252151Z 01012KT 26/11 A2999 RMK A01 T02620114  RH  040%=      5-min Rain = 0
KES1 252152Z 01012KT 26/12 A2999 RMK A01 T02610116  RH  040%=      5-min Rain = 0
KES1 252153Z 02012KT 26/12 A2999 RMK A01 T02610122  RH  042%=      5-min Rain = 0
KES1 252154Z 01015KT 26/12 A2999 RMK A01 T02630115  RH  040%=      5-min Rain = 0
KES1 252155Z 01012KT 26/12 A2999 RMK A01 T02620119  RH  041%=      5-min Rain = 0
KES1 252156Z 01011KT 26/12 A2999 RMK A01 T02620119  RH  041%=      5-min Rain = 0
KES1 252157Z 02012KT 26/12 A2999 RMK A01 T02630119  RH  041%=      5-min Rain = 0
KES1 252158Z 02012KT 26/12 A2999 RMK A01 T02630119  RH  041%=      5-min Rain = 0
KES1 252159Z 02011KT 26/12 A2999 RMK A01 T02640119  RH  041%=      5-min Rain = 0
KES1 252200Z 02014KT 26/12 A2999 RMK A01 T02640120  RH  041%=      5-min Rain = 0
KES1 252201Z 01014KT 26/12 A2999 RMK A01 T02630116  RH  040%=      5-min Rain = 0
KES1 252202Z 36014KT 26/12 A2999 RMK A01 T02630118  RH  040%=      5-min Rain = 0
KES1 252203Z 35013KT 26/12 A2999 RMK A01 T02630117  RH  040%=      5-min Rain = 0
KES1 252204Z 01015KT 26/12 A2999 RMK A01 T02640120  RH  041%=      5-min Rain = 0
KES1 252205Z 36014KT 26/12 A2999 RMK A01 T02640116  RH  040%=      5-min Rain = 0
KES1 252206Z 35013KT 26/12 A2999 RMK A01 T02630118  RH  040%=      5-min Rain = 0
KES1 252207Z 01013G20KT 26/12 A30 RMK A01 T02630119  RH  041%=      5-min Rain = 0
KES1 252208Z 01016KT 26/12 A30 RMK A01 T02640116  RH  040%=      5-min Rain = 0
KES1 252209Z 02017KT 26/12 A30 RMK A01 T02630116  RH  040%=      5-min Rain = 0
KES1 252210Z 01017G23KT 26/11 A30 RMK A01 T02620109  RH  038%=      5-min Rain = 0
KES1 252211Z 02013KT 26/11 A30 RMK A01 T02600109  RH  039%=      5-min Rain = 0
KES1 252212Z 02013KT 26/11 A30 RMK A01 T02600112  RH  040%=      5-min Rain = 0
KES1 252213Z 01011KT 26/12 A30 RMK A01 T02600115  RH  040%=      5-min Rain = 0
KES1 252214Z 35014KT 26/12 A30 RMK A01 T02610115  RH  040%=      5-min Rain = 0
KES1 252215Z 35016KT 26/11 A30 RMK A01 T02620111  RH  039%=      5-min Rain = 0
KES1 252216Z 35015KT 26/11 A30 RMK A01 T02620112  RH  039%=      5-min Rain = 0
KES1 252217Z 35013KT 26/12 A30 RMK A01 T02620116  RH  040%=      5-min Rain = 0
KES1 252218Z 36016KT 26/11 A30 RMK A01 T02630112  RH  039%=      5-min Rain = 0
KES1 252219Z 00014KT 26/11 A30 RMK A01 T02620112  RH  039%=      5-min Rain = 0
KES1 252220Z 01014KT 26/11 A30 RMK A01 T02610110  RH  039%=      5-min Rain = 0
KES1 252221Z 00014KT 26/11 A30 RMK A01 T02600111  RH  039%=      5-min Rain = 0
KES1 252222Z 00014KT 26/12 A30 RMK A01 T02600118  RH  041%=      5-min Rain = 0
KES1 252223Z 35015KT 26/12 A30 RMK A01 T02620118  RH  041%=      5-min Rain = 0
KES1 252224Z 35016KT 26/11 A30 RMK A01 T02630112  RH  039%=      5-min Rain = 0
KES1 252225Z 00016KT 26/11 A30 RMK A01 T02620109  RH  038%=      5-min Rain = 0
KES1 252226Z 01012KT 26/11 A3001 RMK A01 T02610112  RH  039%=      5-min Rain = 0
KES1 252227Z 01016G21KT 26/11 A3001 RMK A01 T02600114  RH  040%=      5-min Rain = 0
KES1 252228Z 01016KT 26/11 A3001 RMK A01 T02610112  RH  039%=      5-min Rain = 0
KES1 252229Z 01015G20KT 26/11 A3001 RMK A01 T02600113  RH  040%=      5-min Rain = 0
KES1 252230Z 36015KT 26/11 A3001 RMK A01 T02590114  RH  040%=      5-min Rain = 0
KES1 252231Z 00015KT 26/11 A3001 RMK A01 T02600111  RH  039%=      5-min Rain = 0
KES1 252232Z 35011KT 26/11 A3001 RMK A01 T02590108  RH  039%=      5-min Rain = 0
KES1 252233Z 35011G19KT 26/12 A3001 RMK A01 T02590116  RH  041%=      5-min Rain = 0
KES1 252234Z 36018KT 26/11 A3001 RMK A01 T02600112  RH  040%=      5-min Rain = 0
KES1 252235Z 01016KT 26/11 A3001 RMK A01 T02600112  RH  040%=      5-min Rain = 0
KES1 252236Z 00016KT 26/11 A3001 RMK A01 T02580111  RH  040%=      5-min Rain = 0
KES1 252237Z 36014KT 26/11 A3001 RMK A01 T02580113  RH  040%=      5-min Rain = 0
KES1 252238Z 01013KT 26/11 A3001 RMK A01 T02580112  RH  040%=      5-min Rain = 0
KES1 252239Z 00016KT 26/11 A3001 RMK A01 T02580109  RH  039%=      5-min Rain = 0
KES1 252240Z 35015KT 26/11 A3001 RMK A01 T02570110  RH  040%=      5-min Rain = 0
KES1 252241Z 35014KT 26/11 A3001 RMK A01 T02570110  RH  040%=      5-min Rain = 0
KES1 252242Z 36014KT 26/11 A3001 RMK A01 T02570112  RH  040%=      5-min Rain = 0
KES1 252243Z 01017KT 26/11 A3001 RMK A01 T02580113  RH  040%=      5-min Rain = 0
KES1 252244Z 01014KT 26/11 A3001 RMK A01 T02580112  RH  040%=      5-min Rain = 0
KES1 252245Z 02012KT 26/12 A3001 RMK A01 T02580115  RH  041%=      5-min Rain = 0
KES1 252246Z 03013KT 26/11 A3001 RMK A01 T02590114  RH  040%=      5-min Rain = 0
KES1 252247Z 02011KT 26/11 A3001 RMK A01 T02590112  RH  040%=      5-min Rain = 0
KES1 252248Z 01011KT 26/12 A3001 RMK A01 T02590116  RH  041%=      5-min Rain = 0
KES1 252249Z 02014KT 26/12 A3002 RMK A01 T02600117  RH  041%=      5-min Rain = 0
KES1 252250Z 03013KT 26/11 A3001 RMK A01 T02600112  RH  040%=      5-min Rain = 0
KES1 252251Z 02011KT 26/11 A3002 RMK A01 T02590113  RH  040%=      5-min Rain = 0
KES1 252252Z 03013KT 26/12 A3002 RMK A01 T02590115  RH  041%=      5-min Rain = 0
KES1 252253Z 02012KT 26/11 A3002 RMK A01 T02590114  RH  040%=      5-min Rain = 0
KES1 252254Z 02011KT 26/11 A3002 RMK A01 T02580109  RH  039%=      5-min Rain = 0
KES1 252255Z 02010KT 26/11 A3002 RMK A01 T02570111  RH  040%=      5-min Rain = 0
KES1 252256Z 03013KT 26/11 A3002 RMK A01 T02570112  RH  040%=      5-min Rain = 0
KES1 252257Z 36014G19KT 26/11 A3002 RMK A01 T02570113  RH  040%=      5-min Rain = 0
KES1 252258Z 36016KT 26/11 A3002 RMK A01 T02580107  RH  039%=      5-min Rain = 0
KES1 252259Z 00013KT 26/11 A3002 RMK A01 T02570110  RH  040%=      5-min Rain = 0
KES1 252300Z 01012KT 26/11 A3002 RMK A01 T02570112  RH  040%=      5-min Rain = 0
KES1 252301Z 01012KT 26/11 A3002 RMK A01 T02570110  RH  040%=      5-min Rain = 0
KES1 252302Z 02012KT 26/12 A3002 RMK A01 T02570115  RH  041%=      5-min Rain = 0
KES1 252303Z 01015KT 26/11 A3002 RMK A01 T02570114  RH  041%=      5-min Rain = 0
KES1 252304Z 01015KT 26/11 A3002 RMK A01 T02570110  RH  040%=      5-min Rain = 0
KES1 252305Z 02013KT 26/11 A3002 RMK A01 T02560113  RH  041%=      5-min Rain = 0
KES1 252306Z 02013KT 26/11 A3002 RMK A01 T02560112  RH  041%=      5-min Rain = 0
KES1 252307Z 02014KT 26/11 A3002 RMK A01 T02550109  RH  040%=      5-min Rain = 0
KES1 252308Z 02010KT 26/11 A3002 RMK A01 T02550112  RH  041%=      5-min Rain = 0
KES1 252309Z 01013KT 26/11 A3002 RMK A01 T02550113  RH  041%=      5-min Rain = 0
KES1 252310Z 02016KT 26/11 A3002 RMK A01 T02550113  RH  041%=      5-min Rain = 0
KES1 252311Z 02014G19KT 26/11 A3002 RMK A01 T02550112  RH  041%=      5-min Rain = 0
KES1 252312Z 02013KT 25/11 A3002 RMK A01 T02540109  RH  040%=      5-min Rain = 0
KES1 252313Z 03015KT 25/11 A3002 RMK A01 T02540110  RH  040%=      5-min Rain = 0
KES1 252314Z 03017KT 25/11 A3002 RMK A01 T02530108  RH  040%=      5-min Rain = 0
KES1 252315Z 02013KT 25/11 A3002 RMK A01 T02520108  RH  040%=      5-min Rain = 0
KES1 252316Z 03013KT 25/11 A3002 RMK A01 T02520111  RH  041%=      5-min Rain = 0
KES1 252317Z 02014KT 25/11 A3002 RMK A01 T02520111  RH  041%=      5-min Rain = 0
KES1 252318Z 02018KT 25/11 A3002 RMK A01 T02520109  RH  041%=      5-min Rain = 0
KES1 252319Z 01015KT 25/11 A3003 RMK A01 T02520110  RH  041%=      5-min Rain = 0
KES1 252320Z 02012G17KT 25/11 A3003 RMK A01 T02520113  RH  042%=      5-min Rain = 0
KES1 252321Z 01014KT 25/11 A3003 RMK A01 T02520110  RH  041%=      5-min Rain = 0
KES1 252322Z 01013KT 25/11 A3003 RMK A01 T02520112  RH  041%=      5-min Rain = 0
KES1 252323Z 01014KT 25/11 A3003 RMK A01 T02530110  RH  041%=      5-min Rain = 0
KES1 252324Z 02013KT 25/11 A3003 RMK A01 T02520109  RH  041%=      5-min Rain = 0
KES1 252325Z 02013KT 25/11 A3003 RMK A01 T02510109  RH  041%=      5-min Rain = 0
KES1 252326Z 02014KT 25/11 A3003 RMK A01 T02510106  RH  040%=      5-min Rain = 0
KES1 252327Z 02015KT 25/11 A3003 RMK A01 T02510108  RH  041%=      5-min Rain = 0
KES1 252328Z 02013KT 25/11 A3003 RMK A01 T02510110  RH  041%=      5-min Rain = 0
KES1 252329Z 01011KT 25/11 A3003 RMK A01 T02510108  RH  041%=      5-min Rain = 0
KES1 252330Z 00014KT 25/11 A3003 RMK A01 T02510112  RH  042%=      5-min Rain = 0
KES1 252331Z 00014KT 25/11 A3003 RMK A01 T02510106  RH  040%=      5-min Rain = 0
KES1 252332Z 36015KT 25/11 A3003 RMK A01 T02510106  RH  040%=      5-min Rain = 0
KES1 252333Z 00013KT 25/11 A3003 RMK A01 T02510108  RH  041%=      5-min Rain = 0
KES1 252334Z 02015KT 25/11 A3003 RMK A01 T02510108  RH  041%=      5-min Rain = 0
KES1 252335Z 01014KT 25/11 A3003 RMK A01 T02500106  RH  040%=      5-min Rain = 0
KES1 252336Z 02014KT 25/10 A3003 RMK A01 T02490104  RH  040%=      5-min Rain = 0
KES1 252337Z 02014KT 25/10 A3003 RMK A01 T02480104  RH  040%=      5-min Rain = 0
KES1 252338Z 02013KT 25/11 A3003 RMK A01 T02480105  RH  041%=      5-min Rain = 0
KES1 252339Z 01013KT 25/11 A3003 RMK A01 T02480107  RH  041%=      5-min Rain = 0
KES1 252340Z 01012KT 25/11 A3003 RMK A01 T02480106  RH  041%=      5-min Rain = 0
KES1 252341Z 02012G17KT 25/11 A3004 RMK A01 T02480107  RH  041%=      5-min Rain = 0
KES1 252342Z 01015KT 25/11 A3004 RMK A01 T02480105  RH  040%=      5-min Rain = 0
KES1 252343Z 01015KT 25/10 A3004 RMK A01 T02480103  RH  040%=      5-min Rain = 0
KES1 252344Z 01014KT 25/10 A3004 RMK A01 T02470103  RH  040%=      5-min Rain = 0
KES1 252345Z 02013KT 25/11 A3004 RMK A01 T02470106  RH  041%=      5-min Rain = 0
KES1 252346Z 02013KT 25/11 A3004 RMK A01 T02470109  RH  042%=      5-min Rain = 0
KES1 252347Z 02013KT 25/11 A3004 RMK A01 T02460106  RH  041%=      5-min Rain = 0
KES1 252348Z 01011G16KT 25/11 A3004 RMK A01 T02460110  RH  042%=      5-min Rain = 0
KES1 252349Z 01013KT 25/10 A3004 RMK A01 T02460103  RH  041%=      5-min Rain = 0
KES1 252350Z 02010KT 25/11 A3004 RMK A01 T02460107  RH  042%=      5-min Rain = 0
KES1 252351Z 03010KT 25/11 A3004 RMK A01 T02460113  RH  043%=      5-min Rain = 0
KES1 252352Z 02011KT 25/11 A3004 RMK A01 T02460109  RH  042%=      5-min Rain = 0
KES1 252353Z 03014KT 25/11 A3004 RMK A01 T02450109  RH  042%=      5-min Rain = 0
KES1 252354Z 03013KT 25/11 A3004 RMK A01 T02450107  RH  042%=      5-min Rain = 0
KES1 252355Z 04015KT 24/11 A3004 RMK A01 T02440106  RH  042%=      5-min Rain = 0
KES1 252356Z 03012KT 24/11 A3004 RMK A01 T02440106  RH  042%=      5-min Rain = 0
KES1 252357Z 02010G15KT 24/11 A3004 RMK A01 T02430109  RH  043%=      5-min Rain = 0
KES1 252358Z 02014KT 24/11 A3004 RMK A01 T02440106  RH  042%=      5-min Rain = 0
KES1 252359Z 02009KT 24/11 A3004 RMK A01 T02430107  RH  042%=      5-min Rain = 0
KES1 260000Z 03014KT 24/11 A3004 RMK A01 T02430108  RH  042%=      5-min Rain = 0
KES1 260001Z 03011KT 24/11 A3004 RMK A01 T02430109  RH  043%=      5-min Rain = 0
KES1 260002Z 03011KT 24/11 A3004 RMK A01 T02420105  RH  042%=      5-min Rain = 0
KES1 260003Z 03011KT 24/11 A3004 RMK A01 T02420107  RH  043%=      5-min Rain = 0
KES1 260004Z 03014KT 24/10 A3004 RMK A01 T02410104  RH  042%=      5-min Rain = 0
KES1 260005Z 03012KT 24/10 A3004 RMK A01 T02410102  RH  041%=      5-min Rain = 0
KES1 260006Z 02014KT 24/10 A3004 RMK A01 T02410101  RH  041%=      5-min Rain = 0
KES1 260007Z 02016KT 24/10 A3004 RMK A01 T02410095  RH  040%=      5-min Rain = 0
KES1 260008Z 02014KT 24/09 A3004 RMK A01 T02410092  RH  039%=      5-min Rain = 0
KES1 260009Z 02015KT 24/09 A3004 RMK A01 T02400092  RH  039%=      5-min Rain = 0
KES1 260010Z 02013KT 24/09 A3004 RMK A01 T02400093  RH  039%=      5-min Rain = 0
KES1 260011Z 02015KT 24/09 A3004 RMK A01 T02390094  RH  040%=      5-min Rain = 0
KES1 260012Z 02014KT 24/09 A3004 RMK A01 T02390093  RH  040%=      5-min Rain = 0
KES1 260013Z 02015KT 24/10 A3004 RMK A01 T02390095  RH  040%=      5-min Rain = 0
KES1 260014Z 02015G20KT 24/09 A3004 RMK A01 T02380093  RH  040%=      5-min Rain = 0
KES1 260015Z 02011KT 24/10 A3004 RMK A01 T02380095  RH  040%=      5-min Rain = 0
KES1 260016Z 02014KT 24/09 A3004 RMK A01 T02370094  RH  040%=      5-min Rain = 0
KES1 260017Z 02016KT 24/09 A3004 RMK A01 T02370092  RH  040%=      5-min Rain = 0
KES1 260018Z 02013KT 24/09 A3004 RMK A01 T02370093  RH  040%=      5-min Rain = 0
KES1 260019Z 02013KT 24/10 A3004 RMK A01 T02360095  RH  041%=      5-min Rain = 0
KES1 260020Z 02015KT 24/09 A3004 RMK A01 T02360092  RH  040%=      5-min Rain = 0
KES1 260021Z 02011KT 24/09 A3004 RMK A01 T02360091  RH  040%=      5-min Rain = 0
KES1 260022Z 02013KT 24/09 A3005 RMK A01 T02350094  RH  041%=      5-min Rain = 0
KES1 260023Z 02012KT 23/09 A3005 RMK A01 T02340091  RH  040%=      5-min Rain = 0
KES1 260024Z 02011G16KT 23/09 A3005 RMK A01 T02340093  RH  041%=      5-min Rain = 0
KES1 260025Z 02010KT 23/09 A3005 RMK A01 T02340092  RH  041%=      5-min Rain = 0
KES1 260026Z 02014KT 23/09 A3005 RMK A01 T02330091  RH  040%=      5-min Rain = 0
KES1 260027Z 02014G19KT 23/09 A3005 RMK A01 T02330090  RH  040%=      5-min Rain = 0
KES1 260028Z 02014G19KT 23/09 A3005 RMK A01 T02330088  RH  039%=      5-min Rain = 0
KES1 260029Z 02011KT 23/09 A3005 RMK A01 T02330088  RH  040%=      5-min Rain = 0
KES1 260030Z 01010KT 23/09 A3005 RMK A01 T02330090  RH  040%=      5-min Rain = 0
KES1 260031Z 02011KT 23/09 A3005 RMK A01 T02320090  RH  040%=      5-min Rain = 0
KES1 260032Z 02011KT 23/09 A3005 RMK A01 T02310089  RH  040%=      5-min Rain = 0
KES1 260033Z 02011KT 23/09 A3005 RMK A01 T02310090  RH  041%=      5-min Rain = 0
KES1 260034Z 02012KT 23/09 A3005 RMK A01 T02310089  RH  040%=      5-min Rain = 0
KES1 260035Z 02012KT 23/09 A3005 RMK A01 T02310091  RH  041%=      5-min Rain = 0
KES1 260036Z 03013KT 23/09 A3005 RMK A01 T02310092  RH  041%=      5-min Rain = 0
KES1 260037Z 03011KT 23/09 A3005 RMK A01 T02300094  RH  042%=      5-min Rain = 0
KES1 260038Z 02012KT 23/10 A3005 RMK A01 T02300095  RH  042%=      5-min Rain = 0
KES1 260039Z 03011KT 23/10 A3005 RMK A01 T02290096  RH  043%=      5-min Rain = 0
KES1 260040Z 03009KT 23/10 A3005 RMK A01 T02290096  RH  043%=      5-min Rain = 0
KES1 260041Z 03011KT 23/10 A3005 RMK A01 T02280097  RH  043%=      5-min Rain = 0
KES1 260042Z 04011KT 23/10 A3005 RMK A01 T02270096  RH  043%=      5-min Rain = 0
KES1 260043Z 02011KT 23/10 A3005 RMK A01 T02270095  RH  043%=      5-min Rain = 0
KES1 260044Z 03010KT 23/10 A3005 RMK A01 T02260095  RH  043%=      5-min Rain = 0
KES1 260045Z 03011KT 23/10 A3005 RMK A01 T02250096  RH  044%=      5-min Rain = 0
KES1 260046Z 03011KT 22/09 A3005 RMK A01 T02240093  RH  043%=      5-min Rain = 0
KES1 260047Z 03011KT 22/10 A3005 RMK A01 T02240095  RH  044%=      5-min Rain = 0
KES1 260048Z 03009KT 22/10 A3005 RMK A01 T02240095  RH  044%=      5-min Rain = 0
KES1 260049Z 03011KT 22/10 A3005 RMK A01 T02230095  RH  044%=      5-min Rain = 0
KES1 260050Z 02009KT 22/10 A3005 RMK A01 T02230095  RH  044%=      5-min Rain = 0
KES1 260051Z 03010KT 22/10 A3005 RMK A01 T02230096  RH  044%=      5-min Rain = 0
KES1 260052Z 03010KT 22/09 A3005 RMK A01 T02220094  RH  044%=      5-min Rain = 0
KES1 260053Z 03010KT 22/09 A3005 RMK A01 T02220094  RH  044%=      5-min Rain = 0
KES1 260054Z 03009KT 22/10 A3005 RMK A01 T02210095  RH  045%=      5-min Rain = 0
KES1 260055Z 03009KT 22/10 A3005 RMK A01 T02200095  RH  045%=      5-min Rain = 0
KES1 260056Z 04008KT 22/10 A3005 RMK A01 T02200095  RH  045%=      5-min Rain = 0
KES1 260057Z 04009KT 22/10 A3005 RMK A01 T02200096  RH  045%=      5-min Rain = 0
KES1 260058Z 04007KT 22/10 A3005 RMK A01 T02190096  RH  045%=      5-min Rain = 0
KES1 260059Z 04008KT 22/10 A3005 RMK A01 T02190097  RH  046%=      5-min Rain = 0
KES1 260100Z 04008KT 22/10 A3005 RMK A01 T02170097  RH  046%=      5-min Rain = 0
KES1 260101Z 04007KT 22/10 A3005 RMK A01 T02170098  RH  047%=      5-min Rain = 0
KES1 260102Z 05007KT 22/10 A3006 RMK A01 T02150099  RH  048%=      5-min Rain = 0
KES1 260103Z 04008KT 21/10 A3006 RMK A01 T02140099  RH  048%=      5-min Rain = 0
KES1 260104Z 04008KT 21/10 A3006 RMK A01 T02120098  RH  048%=      5-min Rain = 0
KES1 260105Z 04009KT 21/10 A3006 RMK A01 T02120098  RH  048%=      5-min Rain = 0
KES1 260106Z 04007KT 21/10 A3006 RMK A01 T02120099  RH  048%=      5-min Rain = 0
KES1 260107Z 04007KT 21/10 A3006 RMK A01 T02110099  RH  049%=      5-min Rain = 0
KES1 260108Z 05007KT 21/10 A3006 RMK A01 T02100098  RH  049%=      5-min Rain = 0
KES1 260109Z 04007KT 21/10 A3006 RMK A01 T02100100  RH  049%=      5-min Rain = 0
KES1 260110Z 05008KT 21/10 A3005 RMK A01 T02090100  RH  050%=      5-min Rain = 0
KES1 260111Z 05008KT 21/10 A3005 RMK A01 T02080099  RH  050%=      5-min Rain = 0
KES1 260112Z 04007KT 21/10 A3005 RMK A01 T02080100  RH  050%=      5-min Rain = 0
KES1 260113Z 05008KT 21/10 A3005 RMK A01 T02070099  RH  050%=      5-min Rain = 0
KES1 260114Z 04007KT 21/10 A3005 RMK A01 T02070100  RH  050%=      5-min Rain = 0
KES1 260115Z 05008KT 21/10 A3005 RMK A01 T02060101  RH  051%=      5-min Rain = 0
KES1 260116Z 05008KT 21/10 A3005 RMK A01 T02050099  RH  051%=      5-min Rain = 0
KES1 260117Z 05006KT 20/10 A3005 RMK A01 T02040100  RH  051%=      5-min Rain = 0
KES1 260118Z 05007KT 20/10 A3006 RMK A01 T02040100  RH  051%=      5-min Rain = 0
KES1 260119Z 04006KT 20/10 A3006 RMK A01 T02030100  RH  051%=      5-min Rain = 0
KES1 260120Z 05006KT 20/10 A3006 RMK A01 T02020101  RH  052%=      5-min Rain = 0
KES1 260121Z 05006KT 20/10 A3006 RMK A01 T02010100  RH  052%=      5-min Rain = 0
KES1 260122Z 05005KT 20/10 A3006 RMK A01 T02000100  RH  053%=      5-min Rain = 0
KES1 260123Z 05005KT 20/10 A3006 RMK A01 T02000101  RH  053%=      5-min Rain = 0
KES1 260124Z 05005KT 20/10 A3006 RMK A01 T01980102  RH  054%=      5-min Rain = 0
KES1 260125Z 05006KT 20/10 A3006 RMK A01 T01970102  RH  054%=      5-min Rain = 0
KES1 260126Z 05006KT 20/10 A3006 RMK A01 T01960102  RH  054%=      5-min Rain = 0
KES1 260127Z 05006KT 20/10 A3006 RMK A01 T01950102  RH  055%=      5-min Rain = 0
KES1 260128Z 06006KT 19/10 A3006 RMK A01 T01940102  RH  055%=      5-min Rain = 0
KES1 260129Z 06006KT 19/10 A3006 RMK A01 T01930103  RH  056%=      5-min Rain = 0
KES1 260130Z 06006KT 19/10 A3006 RMK A01 T01920103  RH  056%=      5-min Rain = 0
KES1 260131Z 06006KT 19/10 A3006 RMK A01 T01920102  RH  056%=      5-min Rain = 0
KES1 260132Z 05006KT 19/10 A3006 RMK A01 T01910101  RH  056%=      5-min Rain = 0
KES1 260133Z 05006KT 19/10 A3006 RMK A01 T01910100  RH  056%=      5-min Rain = 0
KES1 260134Z 05006KT 19/10 A3006 RMK A01 T01910101  RH  056%=      5-min Rain = 0
KES1 260135Z 05006KT 19/10 A3006 RMK A01 T01910101  RH  056%=      5-min Rain = 0
KES1 260136Z 05006KT 19/10 A3006 RMK A01 T01910101  RH  056%=      5-min Rain = 0
KES1 260137Z 05006KT 19/10 A3006 RMK A01 T01900101  RH  056%=      5-min Rain = 0
KES1 260138Z 05007KT 19/10 A3006 RMK A01 T01900101  RH  056%=      5-min Rain = 0
KES1 260139Z 05007KT 19/10 A3006 RMK A01 T01890101  RH  056%=      5-min Rain = 0
KES1 260140Z 05007KT 19/10 A3006 RMK A01 T01890101  RH  057%=      5-min Rain = 0
KES1 260141Z 05007KT 19/10 A3006 RMK A01 T01880101  RH  057%=      5-min Rain = 0
KES1 260142Z 05007KT 19/10 A3006 RMK A01 T01870101  RH  057%=      5-min Rain = 0
KES1 260143Z 05007KT 19/10 A3006 RMK A01 T01870101  RH  058%=      5-min Rain = 0
KES1 260144Z 05007KT 19/10 A3006 RMK A01 T01860102  RH  058%=      5-min Rain = 0
KES1 260145Z 05007KT 19/10 A3006 RMK A01 T01850102  RH  058%=      5-min Rain = 0
KES1 260146Z 05007KT 18/10 A3006 RMK A01 T01840102  RH  059%=      5-min Rain = 0
KES1 260147Z 05007KT 18/10 A3007 RMK A01 T01830103  RH  059%=      5-min Rain = 0
KES1 260148Z 05007KT 18/10 A3007 RMK A01 T01830103  RH  060%=      5-min Rain = 0
KES1 260149Z 06007KT 18/10 A3007 RMK A01 T01820103  RH  060%=      5-min Rain = 0
KES1 260150Z 05007KT 18/10 A3007 RMK A01 T01810103  RH  060%=      5-min Rain = 0
KES1 260151Z 06007KT 18/10 A3007 RMK A01 T01810103  RH  060%=      5-min Rain = 0
KES1 260152Z 06006KT 18/10 A3007 RMK A01 T01800103  RH  061%=      5-min Rain = 0
KES1 260153Z 05006KT 18/10 A3007 RMK A01 T01800103  RH  061%=      5-min Rain = 0
KES1 260154Z 05006KT 18/10 A3007 RMK A01 T01790103  RH  061%=      5-min Rain = 0
KES1 260155Z 05006KT 18/10 A3007 RMK A01 T01790103  RH  061%=      5-min Rain = 0
KES1 260156Z 05006KT 18/10 A3007 RMK A01 T01780103  RH  061%=      5-min Rain = 0
KES1 260157Z 06006KT 18/10 A3007 RMK A01 T01780103  RH  061%=      5-min Rain = 0
KES1 260158Z 05006KT 18/10 A3007 RMK A01 T01780103  RH  061%=      5-min Rain = 0
KES1 260159Z 06006KT 18/10 A3007 RMK A01 T01780103  RH  062%=      5-min Rain = 0
KES1 260200Z 05006KT 18/10 A3007 RMK A01 T01780104  RH  062%=      5-min Rain = 0
KES1 260201Z 06005KT 18/10 A3008 RMK A01 T01770103  RH  062%=      5-min Rain = 0
KES1 260202Z 06005KT 18/10 A3008 RMK A01 T01770103  RH  062%=      5-min Rain = 0
KES1 260203Z 06005KT 18/10 A3008 RMK A01 T01770103  RH  062%=      5-min Rain = 0
KES1 260204Z 06005KT 18/10 A3008 RMK A01 T01770103  RH  062%=      5-min Rain = 0
KES1 260205Z 06005KT 18/10 A3008 RMK A01 T01770103  RH  062%=      5-min Rain = 0
KES1 260206Z 06005KT 18/10 A3008 RMK A01 T01780102  RH  061%=      5-min Rain = 0
KES1 260207Z 06005KT 18/10 A3008 RMK A01 T01780102  RH  061%=      5-min Rain = 0
KES1 260208Z 06005KT 18/10 A3008 RMK A01 T01790102  RH  061%=      5-min Rain = 0
KES1 260209Z 06004KT 18/10 A3008 RMK A01 T01790102  RH  060%=      5-min Rain = 0
KES1 260210Z 06004KT 18/10 A3008 RMK A01 T01790101  RH  060%=      5-min Rain = 0
KES1 260211Z 06004KT 18/10 A3008 RMK A01 T01790101  RH  060%=      5-min Rain = 0
KES1 260212Z 06004KT 18/10 A3008 RMK A01 T01800101  RH  060%=      5-min Rain = 0
KES1 260213Z 06004KT 18/10 A3008 RMK A01 T01800101  RH  060%=      5-min Rain = 0
KES1 260214Z 06004KT 18/10 A3009 RMK A01 T01800100  RH  060%=      5-min Rain = 0
KES1 260215Z 06004KT 18/10 A3009 RMK A01 T01800100  RH  059%=      5-min Rain = 0
KES1 260216Z 06004KT 18/10 A3009 RMK A01 T01800100  RH  059%=      5-min Rain = 0
KES1 260217Z 06004KT 18/10 A3009 RMK A01 T01800100  RH  060%=      5-min Rain = 0
KES1 260218Z 06004KT 18/10 A3009 RMK A01 T01790100  RH  060%=      5-min Rain = 0
KES1 260219Z 06004KT 18/10 A3009 RMK A01 T01790100  RH  060%=      5-min Rain = 0
KES1 260220Z 06004KT 18/10 A3009 RMK A01 T01770101  RH  061%=      5-min Rain = 0
KES1 260221Z 06005KT 18/10 A3009 RMK A01 T01750102  RH  062%=      5-min Rain = 0
KES1 260222Z 06005KT 17/10 A3009 RMK A01 T01730103  RH  063%=      5-min Rain = 0
KES1 260223Z 06005KT 17/10 A3009 RMK A01 T01700103  RH  064%=      5-min Rain = 0
KES1 260224Z 06005KT 17/10 A3009 RMK A01 T01680103  RH  065%=      5-min Rain = 0
KES1 260225Z 06005KT 17/10 A3009 RMK A01 T01670103  RH  066%=      5-min Rain = 0
KES1 260226Z 06005KT 17/10 A3009 RMK A01 T01660103  RH  066%=      5-min Rain = 0
KES1 260227Z 06005KT 17/10 A3009 RMK A01 T01650103  RH  066%=      5-min Rain = 0
KES1 260228Z 05005KT 17/10 A3009 RMK A01 T01650103  RH  067%=      5-min Rain = 0
KES1 260229Z 05005KT 17/10 A3009 RMK A01 T01650102  RH  066%=      5-min Rain = 0
KES1 260230Z 05005KT 17/10 A3009 RMK A01 T01660102  RH  066%=      5-min Rain = 0
KES1 260231Z 05005KT 17/10 A3009 RMK A01 T01680103  RH  066%=      5-min Rain = 0
KES1 260232Z 05005KT 17/10 A3009 RMK A01 T01680103  RH  065%=      5-min Rain = 0
KES1 260233Z 05005KT 17/10 A3009 RMK A01 T01680103  RH  065%=      5-min Rain = 0
KES1 260234Z 05005KT 17/10 A3009 RMK A01 T01680103  RH  065%=      5-min Rain = 0
KES1 260235Z 05005KT 17/10 A3009 RMK A01 T01690103  RH  065%=      5-min Rain = 0
KES1 260236Z 05005KT 17/10 A301 RMK A01 T01690104  RH  065%=      5-min Rain = 0
KES1 260237Z 05005KT 17/10 A301 RMK A01 T01690104  RH  065%=      5-min Rain = 0
KES1 260238Z 05004KT 17/10 A301 RMK A01 T01680104  RH  066%=      5-min Rain = 0
KES1 260239Z 04004KT 17/10 A301 RMK A01 T01680104  RH  066%=      5-min Rain = 0
KES1 260240Z 04004KT 17/10 A301 RMK A01 T01680104  RH  066%=      5-min Rain = 0
KES1 260241Z 04004KT 17/10 A301 RMK A01 T01680104  RH  066%=      5-min Rain = 0
KES1 260242Z 04004KT 17/10 A301 RMK A01 T01670104  RH  066%=      5-min Rain = 0
KES1 260243Z 04004KT 17/10 A301 RMK A01 T01670104  RH  066%=      5-min Rain = 0
KES1 260244Z 04004KT 17/10 A301 RMK A01 T01670104  RH  066%=      5-min Rain = 0
KES1 260245Z 04003KT 17/10 A301 RMK A01 T01670104  RH  066%=      5-min Rain = 0
KES1 260246Z 05003KT 17/10 A301 RMK A01 T01670104  RH  066%=      5-min Rain = 0
KES1 260247Z 05004KT 17/10 A301 RMK A01 T01670104  RH  066%=      5-min Rain = 0
KES1 260248Z 05004KT 17/10 A301 RMK A01 T01670104  RH  066%=      5-min Rain = 0
KES1 260249Z 05004KT 17/11 A301 RMK A01 T01670105  RH  067%=      5-min Rain = 0
KES1 260250Z 05004KT 17/11 A301 RMK A01 T01660105  RH  067%=      5-min Rain = 0
KES1 260251Z 05004KT 17/11 A3011 RMK A01 T01650106  RH  068%=      5-min Rain = 0
KES1 260252Z 05005KT 16/11 A3011 RMK A01 T01630106  RH  069%=      5-min Rain = 0
KES1 260253Z 05004KT 16/11 A3011 RMK A01 T01620107  RH  070%=      5-min Rain = 0
KES1 260254Z 05004KT 16/11 A3011 RMK A01 T01610106  RH  070%=      5-min Rain = 0
KES1 260255Z 05004KT 16/11 A3011 RMK A01 T01610106  RH  070%=      5-min Rain = 0
KES1 260256Z 05004KT 16/11 A3011 RMK A01 T01600105  RH  070%=      5-min Rain = 0
KES1 260257Z 04004KT 16/11 A3011 RMK A01 T01600105  RH  070%=      5-min Rain = 0
KES1 260258Z 04004KT 16/11 A3011 RMK A01 T01600105  RH  070%=      5-min Rain = 0
KES1 260259Z 04004KT 16/11 A3011 RMK A01 T01610105  RH  069%=      5-min Rain = 0
KES1 260300Z 04004KT 16/11 A3011 RMK A01 T01610105  RH  069%=      5-min Rain = 0
KES1 260301Z 04004KT 16/11 A3012 RMK A01 T01610106  RH  070%=      5-min Rain = 0
KES1 260302Z 05004KT 16/11 A3012 RMK A01 T01600106  RH  070%=      5-min Rain = 0
KES1 260303Z 04005KT 16/11 A3012 RMK A01 T01590106  RH  071%=      5-min Rain = 0
KES1 260304Z 05004KT 16/11 A3012 RMK A01 T01590106  RH  071%=      5-min Rain = 0
KES1 260305Z 05004KT 16/11 A3012 RMK A01 T01590106  RH  071%=      5-min Rain = 0
KES1 260306Z 05004KT 16/11 A3012 RMK A01 T01590105  RH  070%=      5-min Rain = 0
KES1 260307Z 05004KT 16/11 A3012 RMK A01 T01590105  RH  070%=      5-min Rain = 0
KES1 260308Z 05004KT 16/11 A3012 RMK A01 T01600105  RH  070%=      5-min Rain = 0
KES1 260309Z 05004KT 16/10 A3012 RMK A01 T01600104  RH  070%=      5-min Rain = 0
KES1 260310Z 05003KT 16/10 A3012 RMK A01 T01600104  RH  069%=      5-min Rain = 0
KES1 260311Z 06003KT 16/10 A3013 RMK A01 T01600104  RH  069%=      5-min Rain = 0
KES1 260312Z 06003KT 16/10 A3013 RMK A01 T01610104  RH  069%=      5-min Rain = 0
KES1 260313Z 06003KT 16/10 A3013 RMK A01 T01610104  RH  069%=      5-min Rain = 0
KES1 260314Z 06003KT 16/11 A3013 RMK A01 T01610105  RH  069%=      5-min Rain = 0
KES1 260315Z 06003KT 16/11 A3013 RMK A01 T01600105  RH  070%=      5-min Rain = 0
KES1 260316Z 07003KT 16/11 A3013 RMK A01 T01590105  RH  070%=      5-min Rain = 0
KES1 260317Z 07003KT 16/11 A3013 RMK A01 T01580106  RH  071%=      5-min Rain = 0
KES1 260318Z 07003KT 16/11 A3013 RMK A01 T01570106  RH  072%=      5-min Rain = 0
KES1 260319Z 08003KT 16/11 A3013 RMK A01 T01560106  RH  072%=      5-min Rain = 0
KES1 260320Z 08003KT 16/11 A3013 RMK A01 T01550107  RH  073%=      5-min Rain = 0
KES1 260321Z 08003KT 15/11 A3013 RMK A01 T01530107  RH  074%=      5-min Rain = 0
KES1 260322Z 08003KT 15/11 A3013 RMK A01 T01520107  RH  074%=      5-min Rain = 0
KES1 260323Z 08003KT 15/11 A3013 RMK A01 T01510107  RH  075%=      5-min Rain = 0
KES1 260324Z 07003KT 15/11 A3013 RMK A01 T01500107  RH  075%=      5-min Rain = 0
KES1 260325Z 07004KT 15/11 A3013 RMK A01 T01500106  RH  075%=      5-min Rain = 0
KES1 260326Z 07004KT 15/11 A3013 RMK A01 T01500106  RH  075%=      5-min Rain = 0
KES1 260327Z 07003KT 15/11 A3013 RMK A01 T01510106  RH  075%=      5-min Rain = 0
KES1 260328Z 07003KT 15/11 A3013 RMK A01 T01510106  RH  075%=      5-min Rain = 0
KES1 260329Z 07003KT 15/11 A3013 RMK A01 T01510107  RH  075%=      5-min Rain = 0
KES1 260330Z 07003KT 15/11 A3013 RMK A01 T01520106  RH  074%=      5-min Rain = 0
KES1 260331Z 07003KT 15/11 A3013 RMK A01 T01520106  RH  074%=      5-min Rain = 0
KES1 260332Z 07003KT 15/11 A3013 RMK A01 T01520106  RH  074%=      5-min Rain = 0
KES1 260333Z 07003KT 15/11 A3013 RMK A01 T01520105  RH  073%=      5-min Rain = 0
KES1 260334Z 07003KT 15/11 A3013 RMK A01 T01540105  RH  073%=      5-min Rain = 0
KES1 260335Z 07003KT 16/11 A3013 RMK A01 T01550105  RH  072%=      5-min Rain = 0
KES1 260336Z 07003KT 16/11 A3013 RMK A01 T01550105  RH  072%=      5-min Rain = 0
KES1 260337Z 07003KT 16/10 A3013 RMK A01 T01560104  RH  071%=      5-min Rain = 0
KES1 260338Z 07003KT 16/10 A3013 RMK A01 T01570104  RH  071%=      5-min Rain = 0
KES1 260339Z 07003KT 16/10 A3013 RMK A01 T01580104  RH  070%=      5-min Rain = 0
KES1 260340Z 07003KT 16/10 A3013 RMK A01 T01590104  RH  070%=      5-min Rain = 0
KES1 260341Z 06003KT 16/10 A3013 RMK A01 T01590104  RH  070%=      5-min Rain = 0
KES1 260342Z 06003KT 16/10 A3013 RMK A01 T01590104  RH  070%=      5-min Rain = 0
KES1 260343Z 06003KT 16/11 A3013 RMK A01 T01590105  RH  070%=      5-min Rain = 0
KES1 260344Z 05003KT 16/11 A3013 RMK A01 T01580105  RH  071%=      5-min Rain = 0
KES1 260345Z 05003KT 16/11 A3013 RMK A01 T01570105  RH  071%=      5-min Rain = 0
KES1 260346Z 05003KT 16/11 A3013 RMK A01 T01570105  RH  071%=      5-min Rain = 0
KES1 260347Z 05002KT 16/10 A3013 RMK A01 T01570104  RH  071%=      5-min Rain = 0
KES1 260348Z 05002KT 16/10 A3013 RMK A01 T01560103  RH  070%=      5-min Rain = 0
KES1 260349Z 04002KT 16/10 A3013 RMK A01 T01560102  RH  070%=      5-min Rain = 0
KES1 260350Z 04002KT 16/10 A3013 RMK A01 T01560102  RH  070%=      5-min Rain = 0
KES1 260351Z 04001KT 16/10 A3013 RMK A01 T01570102  RH  070%=      5-min Rain = 0
KES1 260352Z 03001KT 16/10 A3013 RMK A01 T01570102  RH  070%=      5-min Rain = 0
KES1 260353Z 03001KT 16/10 A3013 RMK A01 T01560104  RH  071%=      5-min Rain = 0
KES1 260354Z 03001KT 16/10 A3013 RMK A01 T01550104  RH  071%=      5-min Rain = 0
KES1 260355Z 03001KT 16/10 A3013 RMK A01 T01550103  RH  071%=      5-min Rain = 0
KES1 260356Z 03001KT 16/10 A3013 RMK A01 T01550103  RH  071%=      5-min Rain = 0
KES1 260357Z 03000KT 16/10 A3013 RMK A01 T01550102  RH  071%=      5-min Rain = 0
KES1 260358Z 00000KT 16/10 A3013 RMK A01 T01550102  RH  071%=      5-min Rain = 0
KES1 260359Z 00000KT 16/10 A3013 RMK A01 T01550102  RH  071%=      5-min Rain = 0
KES1 260400Z 00000KT 16/10 A3014 RMK A01 T01560102  RH  070%=      5-min Rain = 0
KES1 260401Z 00000KT 16/10 A3014 RMK A01 T01560102  RH  070%=      5-min Rain = 0
KES1 260402Z 00000KT 16/10 A3014 RMK A01 T01560102  RH  070%=      5-min Rain = 0
KES1 260403Z 00000KT 16/10 A3014 RMK A01 T01560102  RH  070%=      5-min Rain = 0
KES1 260404Z 00000KT 16/10 A3014 RMK A01 T01560102  RH  070%=      5-min Rain = 0
KES1 260405Z 00000KT 16/10 A3014 RMK A01 T01560102  RH  070%=      5-min Rain = 0
KES1 260406Z 00000KT 16/10 A3014 RMK A01 T01560102  RH  070%=      5-min Rain = 0
KES1 260407Z 27000KT 16/10 A3014 RMK A01 T01550102  RH  071%=      5-min Rain = 0
KES1 260408Z 26001KT 15/10 A3014 RMK A01 T01540102  RH  071%=      5-min Rain = 0
KES1 260409Z 25001KT 15/10 A3014 RMK A01 T01540102  RH  071%=      5-min Rain = 0
KES1 260410Z 24002KT 15/10 A3014 RMK A01 T01530102  RH  072%=      5-min Rain = 0
KES1 260411Z 23002KT 15/10 A3014 RMK A01 T01520102  RH  072%=      5-min Rain = 0
KES1 260412Z 23002KT 15/10 A3014 RMK A01 T01520102  RH  072%=      5-min Rain = 0
KES1 260413Z 23002KT 15/10 A3014 RMK A01 T01510102  RH  072%=      5-min Rain = 0
KES1 260414Z 23002KT 15/10 A3014 RMK A01 T01510102  RH  072%=      5-min Rain = 0
KES1 260415Z 22002KT 15/10 A3014 RMK A01 T01510102  RH  072%=      5-min Rain = 0
KES1 260416Z 22002KT 15/10 A3014 RMK A01 T01510103  RH  073%=      5-min Rain = 0
KES1 260417Z 22002KT 15/10 A3014 RMK A01 T01510103  RH  073%=      5-min Rain = 0
KES1 260418Z 21002KT 15/10 A3014 RMK A01 T01500104  RH  074%=      5-min Rain = 0
KES1 260419Z 20002KT 15/10 A3014 RMK A01 T01480103  RH  075%=      5-min Rain = 0
KES1 260420Z 20001KT 15/10 A3014 RMK A01 T01470104  RH  075%=      5-min Rain = 0
KES1 260421Z 20000KT 15/10 A3014 RMK A01 T01450104  RH  076%=      5-min Rain = 0
KES1 260422Z 00000KT 14/10 A3014 RMK A01 T01440103  RH  077%=      5-min Rain = 0
KES1 260423Z 00000KT 15/10 A3014 RMK A01 T01450104  RH  076%=      5-min Rain = 0
KES1 260424Z 00000KT 15/10 A3014 RMK A01 T01450103  RH  076%=      5-min Rain = 0
KES1 260425Z 00000KT 15/11 A3014 RMK A01 T01460105  RH  076%=      5-min Rain = 0
KES1 260426Z 00000KT 15/11 A3014 RMK A01 T01450105  RH  077%=      5-min Rain = 0
KES1 260427Z 00000KT 14/10 A3014 RMK A01 T01440104  RH  077%=      5-min Rain = 0
KES1 260428Z 00000KT 14/10 A3014 RMK A01 T01430104  RH  077%=      5-min Rain = 0
KES1 260429Z 00000KT 14/10 A3014 RMK A01 T01430103  RH  077%=      5-min Rain = 0
KES1 260430Z 00000KT 14/10 A3014 RMK A01 T01440103  RH  077%=      5-min Rain = 0
KES1 260431Z 00000KT 15/10 A3014 RMK A01 T01450102  RH  075%=      5-min Rain = 0
KES1 260432Z 00000KT 15/10 A3014 RMK A01 T01480101  RH  074%=      5-min Rain = 0
KES1 260433Z 00000KT 15/10 A3014 RMK A01 T01500101  RH  072%=      5-min Rain = 0
KES1 260434Z 00000KT 15/10 A3014 RMK A01 T01520101  RH  072%=      5-min Rain = 0
KES1 260435Z 00000KT 15/10 A3015 RMK A01 T01540101  RH  071%=      5-min Rain = 0
KES1 260436Z 00000KT 15/10 A3015 RMK A01 T01540103  RH  071%=      5-min Rain = 0
KES1 260437Z 20000KT 15/10 A3015 RMK A01 T01530103  RH  072%=      5-min Rain = 0
KES1 260438Z 19000KT 15/10 A3015 RMK A01 T01520102  RH  072%=      5-min Rain = 0
KES1 260439Z 19000KT 15/10 A3015 RMK A01 T01510102  RH  073%=      5-min Rain = 0
KES1 260440Z 00000KT 15/10 A3015 RMK A01 T01500101  RH  073%=      5-min Rain = 0
KES1 260441Z 00000KT 15/10 A3015 RMK A01 T01490101  RH  073%=      5-min Rain = 0
KES1 260442Z 00000KT 15/10 A3015 RMK A01 T01490100  RH  072%=      5-min Rain = 0
KES1 260443Z 00000KT 15/10 A3015 RMK A01 T01510100  RH  072%=      5-min Rain = 0
KES1 260444Z 00000KT 15/10 A3015 RMK A01 T01520101  RH  071%=      5-min Rain = 0
KES1 260445Z 20000KT 15/10 A3015 RMK A01 T01530102  RH  072%=      5-min Rain = 0
KES1 260446Z 24001KT 15/10 A3015 RMK A01 T01520102  RH  072%=      5-min Rain = 0
KES1 260447Z 24002KT 15/10 A3015 RMK A01 T01500102  RH  073%=      5-min Rain = 0
KES1 260448Z 23002KT 15/10 A3015 RMK A01 T01480102  RH  074%=      5-min Rain = 0
KES1 260449Z 23002KT 15/10 A3015 RMK A01 T01470102  RH  074%=      5-min Rain = 0
KES1 260450Z 23002KT 15/10 A3015 RMK A01 T01460101  RH  075%=      5-min Rain = 0
KES1 260451Z 22002KT 15/10 A3015 RMK A01 T01450101  RH  075%=      5-min Rain = 0
KES1 260452Z 21002KT 14/10 A3015 RMK A01 T01440102  RH  075%=      5-min Rain = 0
KES1 260453Z 21002KT 14/10 A3015 RMK A01 T01430102  RH  076%=      5-min Rain = 0
KES1 260454Z 19003KT 14/10 A3015 RMK A01 T01410101  RH  077%=      5-min Rain = 0
KES1 260455Z 19003KT 14/10 A3015 RMK A01 T01390101  RH  078%=      5-min Rain = 0
KES1 260456Z 18002KT 14/10 A3015 RMK A01 T01370101  RH  079%=      5-min Rain = 0
KES1 260457Z 18002KT 14/10 A3015 RMK A01 T01360101  RH  079%=      5-min Rain = 0
KES1 260458Z 18002KT 14/10 A3015 RMK A01 T01360101  RH  079%=      5-min Rain = 0
KES1 260459Z 19002KT 14/10 A3015 RMK A01 T01370101  RH  079%=      5-min Rain = 0

Page generated in 0.1465 seconds.